<?xml version="1.0" encoding="UTF-8" standalone="no" ?>
<gpx xmlns="http://www.topografix.com/GPX/1/1" xmlns:xsi="http://www.w3.org/2001/XMLSchema-instance" xsi:schemaLocation="http://www.topografix.com/GPX/1/1 http://www.topografix.com/GPX/1/1/gpx.xsd" version="1.1" creator="VisuGPX - https://www.visugpx.com">
  <metadata>
    <name>Jas et ses environs</name>
    <desc><![CDATA[Tout autour de Jas. Des points de vue, des chemins agréables en sous bois. ]]></desc>
  </metadata>
  <trk>
    <name><![CDATA[20181211113011-9WZ1j]]></name>
    <trkseg>
      <trkpt lat="45.74513" lon="4.31067">
        <ele>558.266</ele>
        <time>2018-12-10T13:03:56Z</time>
      </trkpt>
      <trkpt lat="45.74515" lon="4.31063">
        <ele>557.965</ele>
        <time>2018-12-10T13:04:01Z</time>
      </trkpt>
      <trkpt lat="45.74517" lon="4.31062">
        <ele>557.519</ele>
        <time>2018-12-10T13:04:06Z</time>
      </trkpt>
      <trkpt lat="45.74517" lon="4.3106">
        <ele>557.533</ele>
        <time>2018-12-10T13:04:12Z</time>
      </trkpt>
      <trkpt lat="45.74521" lon="4.31058">
        <ele>557.422</ele>
        <time>2018-12-10T13:04:17Z</time>
      </trkpt>
      <trkpt lat="45.74529" lon="4.31054">
        <ele>557.043</ele>
        <time>2018-12-10T13:04:23Z</time>
      </trkpt>
      <trkpt lat="45.74534" lon="4.3105">
        <ele>557.005</ele>
        <time>2018-12-10T13:04:29Z</time>
      </trkpt>
      <trkpt lat="45.74537" lon="4.31043">
        <ele>557.262</ele>
        <time>2018-12-10T13:04:35Z</time>
      </trkpt>
      <trkpt lat="45.74541" lon="4.31034">
        <ele>557.754</ele>
        <time>2018-12-10T13:04:41Z</time>
      </trkpt>
      <trkpt lat="45.74543" lon="4.31028">
        <ele>557.893</ele>
        <time>2018-12-10T13:04:46Z</time>
      </trkpt>
      <trkpt lat="45.74547" lon="4.31028">
        <ele>558.248</ele>
        <time>2018-12-10T13:04:51Z</time>
      </trkpt>
      <trkpt lat="45.74551" lon="4.31028">
        <ele>559.337</ele>
        <time>2018-12-10T13:04:57Z</time>
      </trkpt>
      <trkpt lat="45.74554" lon="4.31028">
        <ele>560.196</ele>
        <time>2018-12-10T13:05:02Z</time>
      </trkpt>
      <trkpt lat="45.74555" lon="4.31026">
        <ele>560.299</ele>
        <time>2018-12-10T13:05:08Z</time>
      </trkpt>
      <trkpt lat="45.74553" lon="4.31027">
        <ele>560.639</ele>
        <time>2018-12-10T13:05:13Z</time>
      </trkpt>
      <trkpt lat="45.7455" lon="4.31029">
        <ele>560.785</ele>
        <time>2018-12-10T13:05:18Z</time>
      </trkpt>
      <trkpt lat="45.74543" lon="4.31027">
        <ele>560.607</ele>
        <time>2018-12-10T13:05:24Z</time>
      </trkpt>
      <trkpt lat="45.74541" lon="4.31021">
        <ele>560.503</ele>
        <time>2018-12-10T13:05:29Z</time>
      </trkpt>
      <trkpt lat="45.74539" lon="4.31014">
        <ele>560.306</ele>
        <time>2018-12-10T13:05:36Z</time>
      </trkpt>
      <trkpt lat="45.74538" lon="4.31004">
        <ele>560.26</ele>
        <time>2018-12-10T13:05:41Z</time>
      </trkpt>
      <trkpt lat="45.74538" lon="4.30995">
        <ele>560.499</ele>
        <time>2018-12-10T13:05:47Z</time>
      </trkpt>
      <trkpt lat="45.7454" lon="4.30988">
        <ele>561.179</ele>
        <time>2018-12-10T13:05:53Z</time>
      </trkpt>
      <trkpt lat="45.74542" lon="4.30982">
        <ele>562.082</ele>
        <time>2018-12-10T13:05:59Z</time>
      </trkpt>
      <trkpt lat="45.74542" lon="4.30976">
        <ele>562.415</ele>
        <time>2018-12-10T13:06:05Z</time>
      </trkpt>
      <trkpt lat="45.74543" lon="4.3097">
        <ele>562.483</ele>
        <time>2018-12-10T13:06:12Z</time>
      </trkpt>
      <trkpt lat="45.74546" lon="4.30966">
        <ele>562.472</ele>
        <time>2018-12-10T13:06:17Z</time>
      </trkpt>
      <trkpt lat="45.7455" lon="4.30958">
        <ele>562.682</ele>
        <time>2018-12-10T13:06:24Z</time>
      </trkpt>
      <trkpt lat="45.7455" lon="4.30952">
        <ele>562.565</ele>
        <time>2018-12-10T13:06:30Z</time>
      </trkpt>
      <trkpt lat="45.7455" lon="4.30948">
        <ele>563.062</ele>
        <time>2018-12-10T13:06:35Z</time>
      </trkpt>
      <trkpt lat="45.7455" lon="4.30943">
        <ele>563.549</ele>
        <time>2018-12-10T13:06:40Z</time>
      </trkpt>
      <trkpt lat="45.74549" lon="4.30939">
        <ele>564.333</ele>
        <time>2018-12-10T13:06:45Z</time>
      </trkpt>
      <trkpt lat="45.74547" lon="4.30934">
        <ele>564.876</ele>
        <time>2018-12-10T13:06:51Z</time>
      </trkpt>
      <trkpt lat="45.74548" lon="4.30931">
        <ele>565.05</ele>
        <time>2018-12-10T13:06:57Z</time>
      </trkpt>
      <trkpt lat="45.74551" lon="4.30928">
        <ele>565.333</ele>
        <time>2018-12-10T13:07:02Z</time>
      </trkpt>
      <trkpt lat="45.74553" lon="4.30926">
        <ele>565.472</ele>
        <time>2018-12-10T13:07:07Z</time>
      </trkpt>
      <trkpt lat="45.74555" lon="4.30925">
        <ele>565.447</ele>
        <time>2018-12-10T13:07:12Z</time>
      </trkpt>
      <trkpt lat="45.74557" lon="4.30924">
        <ele>565.361</ele>
        <time>2018-12-10T13:07:18Z</time>
      </trkpt>
      <trkpt lat="45.74559" lon="4.30921">
        <ele>565.758</ele>
        <time>2018-12-10T13:07:23Z</time>
      </trkpt>
      <trkpt lat="45.74557" lon="4.30913">
        <ele>565.704</ele>
        <time>2018-12-10T13:07:29Z</time>
      </trkpt>
      <trkpt lat="45.74557" lon="4.30905">
        <ele>565.219</ele>
        <time>2018-12-10T13:07:35Z</time>
      </trkpt>
      <trkpt lat="45.74558" lon="4.30898">
        <ele>565.049</ele>
        <time>2018-12-10T13:07:41Z</time>
      </trkpt>
      <trkpt lat="45.74559" lon="4.30894">
        <ele>565.158</ele>
        <time>2018-12-10T13:07:47Z</time>
      </trkpt>
      <trkpt lat="45.74561" lon="4.30888">
        <ele>565.347</ele>
        <time>2018-12-10T13:07:52Z</time>
      </trkpt>
      <trkpt lat="45.74561" lon="4.30887">
        <ele>565.193</ele>
        <time>2018-12-10T13:07:57Z</time>
      </trkpt>
      <trkpt lat="45.74561" lon="4.30886">
        <ele>564.983</ele>
        <time>2018-12-10T13:08:02Z</time>
      </trkpt>
      <trkpt lat="45.74561" lon="4.30885">
        <ele>564.584</ele>
        <time>2018-12-10T13:08:08Z</time>
      </trkpt>
      <trkpt lat="45.74562" lon="4.30886">
        <ele>564.781</ele>
        <time>2018-12-10T13:08:14Z</time>
      </trkpt>
      <trkpt lat="45.74562" lon="4.30886">
        <ele>565.086</ele>
        <time>2018-12-10T13:08:19Z</time>
      </trkpt>
      <trkpt lat="45.74562" lon="4.30885">
        <ele>565.167</ele>
        <time>2018-12-10T13:08:25Z</time>
      </trkpt>
      <trkpt lat="45.74562" lon="4.30886">
        <ele>565.28</ele>
        <time>2018-12-10T13:08:30Z</time>
      </trkpt>
      <trkpt lat="45.74562" lon="4.30886">
        <ele>565.558</ele>
        <time>2018-12-10T13:08:37Z</time>
      </trkpt>
      <trkpt lat="45.74561" lon="4.30891">
        <ele>566.585</ele>
        <time>2018-12-10T13:08:42Z</time>
      </trkpt>
      <trkpt lat="45.7456" lon="4.30894">
        <ele>566.734</ele>
        <time>2018-12-10T13:08:48Z</time>
      </trkpt>
      <trkpt lat="45.74561" lon="4.30895">
        <ele>566.733</ele>
        <time>2018-12-10T13:08:54Z</time>
      </trkpt>
      <trkpt lat="45.74562" lon="4.30892">
        <ele>566.744</ele>
        <time>2018-12-10T13:09:00Z</time>
      </trkpt>
      <trkpt lat="45.74564" lon="4.30887">
        <ele>567.076</ele>
        <time>2018-12-10T13:09:06Z</time>
      </trkpt>
      <trkpt lat="45.74565" lon="4.30886">
        <ele>567.475</ele>
        <time>2018-12-10T13:09:11Z</time>
      </trkpt>
      <trkpt lat="45.74567" lon="4.30884">
        <ele>567.571</ele>
        <time>2018-12-10T13:09:16Z</time>
      </trkpt>
      <trkpt lat="45.74567" lon="4.30885">
        <ele>567.551</ele>
        <time>2018-12-10T13:09:22Z</time>
      </trkpt>
      <trkpt lat="45.74567" lon="4.30885">
        <ele>567.122</ele>
        <time>2018-12-10T13:09:27Z</time>
      </trkpt>
      <trkpt lat="45.74567" lon="4.30886">
        <ele>566.707</ele>
        <time>2018-12-10T13:09:33Z</time>
      </trkpt>
      <trkpt lat="45.74568" lon="4.30885">
        <ele>566.128</ele>
        <time>2018-12-10T13:09:39Z</time>
      </trkpt>
      <trkpt lat="45.74567" lon="4.30884">
        <ele>565.689</ele>
        <time>2018-12-10T13:09:44Z</time>
      </trkpt>
      <trkpt lat="45.74568" lon="4.30884">
        <ele>565.241</ele>
        <time>2018-12-10T13:09:49Z</time>
      </trkpt>
      <trkpt lat="45.74571" lon="4.30884">
        <ele>564.593</ele>
        <time>2018-12-10T13:09:55Z</time>
      </trkpt>
      <trkpt lat="45.74571" lon="4.30883">
        <ele>563.876</ele>
        <time>2018-12-10T13:10:00Z</time>
      </trkpt>
      <trkpt lat="45.7457" lon="4.30884">
        <ele>562.604</ele>
        <time>2018-12-10T13:10:06Z</time>
      </trkpt>
      <trkpt lat="45.74569" lon="4.30884">
        <ele>562.019</ele>
        <time>2018-12-10T13:10:11Z</time>
      </trkpt>
      <trkpt lat="45.74569" lon="4.30884">
        <ele>561.734</ele>
        <time>2018-12-10T13:10:17Z</time>
      </trkpt>
      <trkpt lat="45.74569" lon="4.30884">
        <ele>561.645</ele>
        <time>2018-12-10T13:10:23Z</time>
      </trkpt>
      <trkpt lat="45.74569" lon="4.30884">
        <ele>561.625</ele>
        <time>2018-12-10T13:10:29Z</time>
      </trkpt>
      <trkpt lat="45.74569" lon="4.30884">
        <ele>561.634</ele>
        <time>2018-12-10T13:10:34Z</time>
      </trkpt>
      <trkpt lat="45.74569" lon="4.30884">
        <ele>561.705</ele>
        <time>2018-12-10T13:10:40Z</time>
      </trkpt>
      <trkpt lat="45.74569" lon="4.30885">
        <ele>561.781</ele>
        <time>2018-12-10T13:10:46Z</time>
      </trkpt>
      <trkpt lat="45.7457" lon="4.30885">
        <ele>561.91</ele>
        <time>2018-12-10T13:10:52Z</time>
      </trkpt>
      <trkpt lat="45.7457" lon="4.30885">
        <ele>562.014</ele>
        <time>2018-12-10T13:10:57Z</time>
      </trkpt>
      <trkpt lat="45.7457" lon="4.30885">
        <ele>562.143</ele>
        <time>2018-12-10T13:11:03Z</time>
      </trkpt>
      <trkpt lat="45.7457" lon="4.30885">
        <ele>562.226</ele>
        <time>2018-12-10T13:11:09Z</time>
      </trkpt>
      <trkpt lat="45.7457" lon="4.30885">
        <ele>562.307</ele>
        <time>2018-12-10T13:11:14Z</time>
      </trkpt>
      <trkpt lat="45.7457" lon="4.30885">
        <ele>562.355</ele>
        <time>2018-12-10T13:11:19Z</time>
      </trkpt>
      <trkpt lat="45.7457" lon="4.30885">
        <ele>562.662</ele>
        <time>2018-12-10T13:11:26Z</time>
      </trkpt>
      <trkpt lat="45.7457" lon="4.30885">
        <ele>563.018</ele>
        <time>2018-12-10T13:11:32Z</time>
      </trkpt>
      <trkpt lat="45.7457" lon="4.30885">
        <ele>563.19</ele>
        <time>2018-12-10T13:11:38Z</time>
      </trkpt>
      <trkpt lat="45.74569" lon="4.30885">
        <ele>563.729</ele>
        <time>2018-12-10T13:11:44Z</time>
      </trkpt>
      <trkpt lat="45.74568" lon="4.30889">
        <ele>564.327</ele>
        <time>2018-12-10T13:11:50Z</time>
      </trkpt>
      <trkpt lat="45.74564" lon="4.30894">
        <ele>564.578</ele>
        <time>2018-12-10T13:11:56Z</time>
      </trkpt>
      <trkpt lat="45.74562" lon="4.30897">
        <ele>565.008</ele>
        <time>2018-12-10T13:12:02Z</time>
      </trkpt>
      <trkpt lat="45.74558" lon="4.30902">
        <ele>564.985</ele>
        <time>2018-12-10T13:12:08Z</time>
      </trkpt>
      <trkpt lat="45.74557" lon="4.30908">
        <ele>564.86</ele>
        <time>2018-12-10T13:12:14Z</time>
      </trkpt>
      <trkpt lat="45.74557" lon="4.30913">
        <ele>565.013</ele>
        <time>2018-12-10T13:12:19Z</time>
      </trkpt>
      <trkpt lat="45.74557" lon="4.30914">
        <ele>565.203</ele>
        <time>2018-12-10T13:12:24Z</time>
      </trkpt>
      <trkpt lat="45.74557" lon="4.30918">
        <ele>565.431</ele>
        <time>2018-12-10T13:12:30Z</time>
      </trkpt>
      <trkpt lat="45.74557" lon="4.30925">
        <ele>565.273</ele>
        <time>2018-12-10T13:12:36Z</time>
      </trkpt>
      <trkpt lat="45.74557" lon="4.30928">
        <ele>565.481</ele>
        <time>2018-12-10T13:12:41Z</time>
      </trkpt>
      <trkpt lat="45.74554" lon="4.30931">
        <ele>565.721</ele>
        <time>2018-12-10T13:12:47Z</time>
      </trkpt>
      <trkpt lat="45.74551" lon="4.30935">
        <ele>565.945</ele>
        <time>2018-12-10T13:12:52Z</time>
      </trkpt>
      <trkpt lat="45.7455" lon="4.30938">
        <ele>566.111</ele>
        <time>2018-12-10T13:12:57Z</time>
      </trkpt>
      <trkpt lat="45.7455" lon="4.30945">
        <ele>566.289</ele>
        <time>2018-12-10T13:13:03Z</time>
      </trkpt>
      <trkpt lat="45.7455" lon="4.30952">
        <ele>566.329</ele>
        <time>2018-12-10T13:13:09Z</time>
      </trkpt>
      <trkpt lat="45.74554" lon="4.30957">
        <ele>565.761</ele>
        <time>2018-12-10T13:13:15Z</time>
      </trkpt>
      <trkpt lat="45.74556" lon="4.30957">
        <ele>565.899</ele>
        <time>2018-12-10T13:13:21Z</time>
      </trkpt>
      <trkpt lat="45.7456" lon="4.3096">
        <ele>565.617</ele>
        <time>2018-12-10T13:13:27Z</time>
      </trkpt>
      <trkpt lat="45.74571" lon="4.30962">
        <ele>565.506</ele>
        <time>2018-12-10T13:13:32Z</time>
      </trkpt>
      <trkpt lat="45.74576" lon="4.30966">
        <ele>565.588</ele>
        <time>2018-12-10T13:13:38Z</time>
      </trkpt>
      <trkpt lat="45.7458" lon="4.3097">
        <ele>565.567</ele>
        <time>2018-12-10T13:13:44Z</time>
      </trkpt>
      <trkpt lat="45.74584" lon="4.30973">
        <ele>566.049</ele>
        <time>2018-12-10T13:13:49Z</time>
      </trkpt>
      <trkpt lat="45.74586" lon="4.30979">
        <ele>566.208</ele>
        <time>2018-12-10T13:13:55Z</time>
      </trkpt>
      <trkpt lat="45.74587" lon="4.30983">
        <ele>566.233</ele>
        <time>2018-12-10T13:14:00Z</time>
      </trkpt>
      <trkpt lat="45.7459" lon="4.30991">
        <ele>566.082</ele>
        <time>2018-12-10T13:14:06Z</time>
      </trkpt>
      <trkpt lat="45.74592" lon="4.30997">
        <ele>565.898</ele>
        <time>2018-12-10T13:14:11Z</time>
      </trkpt>
      <trkpt lat="45.74596" lon="4.31004">
        <ele>565.713</ele>
        <time>2018-12-10T13:14:16Z</time>
      </trkpt>
      <trkpt lat="45.74602" lon="4.31009">
        <ele>565.295</ele>
        <time>2018-12-10T13:14:21Z</time>
      </trkpt>
      <trkpt lat="45.74607" lon="4.31013">
        <ele>564.979</ele>
        <time>2018-12-10T13:14:27Z</time>
      </trkpt>
      <trkpt lat="45.7461" lon="4.31014">
        <ele>564.784</ele>
        <time>2018-12-10T13:14:32Z</time>
      </trkpt>
      <trkpt lat="45.74612" lon="4.3102">
        <ele>564.616</ele>
        <time>2018-12-10T13:14:38Z</time>
      </trkpt>
      <trkpt lat="45.74616" lon="4.31027">
        <ele>564.714</ele>
        <time>2018-12-10T13:14:43Z</time>
      </trkpt>
      <trkpt lat="45.74621" lon="4.31032">
        <ele>564.53</ele>
        <time>2018-12-10T13:14:48Z</time>
      </trkpt>
      <trkpt lat="45.74625" lon="4.31036">
        <ele>564.349</ele>
        <time>2018-12-10T13:14:54Z</time>
      </trkpt>
      <trkpt lat="45.74631" lon="4.3104">
        <ele>563.978</ele>
        <time>2018-12-10T13:14:59Z</time>
      </trkpt>
      <trkpt lat="45.74635" lon="4.31043">
        <ele>563.414</ele>
        <time>2018-12-10T13:15:05Z</time>
      </trkpt>
      <trkpt lat="45.7464" lon="4.31045">
        <ele>562.894</ele>
        <time>2018-12-10T13:15:10Z</time>
      </trkpt>
      <trkpt lat="45.74645" lon="4.31049">
        <ele>562.606</ele>
        <time>2018-12-10T13:15:16Z</time>
      </trkpt>
      <trkpt lat="45.74651" lon="4.31053">
        <ele>562.117</ele>
        <time>2018-12-10T13:15:22Z</time>
      </trkpt>
      <trkpt lat="45.74656" lon="4.31056">
        <ele>561.657</ele>
        <time>2018-12-10T13:15:27Z</time>
      </trkpt>
      <trkpt lat="45.74662" lon="4.31059">
        <ele>561.11</ele>
        <time>2018-12-10T13:15:32Z</time>
      </trkpt>
      <trkpt lat="45.74666" lon="4.31062">
        <ele>560.516</ele>
        <time>2018-12-10T13:15:38Z</time>
      </trkpt>
      <trkpt lat="45.74671" lon="4.31063">
        <ele>559.621</ele>
        <time>2018-12-10T13:15:43Z</time>
      </trkpt>
      <trkpt lat="45.74678" lon="4.31062">
        <ele>558.696</ele>
        <time>2018-12-10T13:15:49Z</time>
      </trkpt>
      <trkpt lat="45.74686" lon="4.31061">
        <ele>557.867</ele>
        <time>2018-12-10T13:15:55Z</time>
      </trkpt>
      <trkpt lat="45.74691" lon="4.31059">
        <ele>557.411</ele>
        <time>2018-12-10T13:16:01Z</time>
      </trkpt>
      <trkpt lat="45.74695" lon="4.31057">
        <ele>556.855</ele>
        <time>2018-12-10T13:16:06Z</time>
      </trkpt>
      <trkpt lat="45.747" lon="4.31055">
        <ele>555.528</ele>
        <time>2018-12-10T13:16:12Z</time>
      </trkpt>
      <trkpt lat="45.74704" lon="4.3105">
        <ele>554.21</ele>
        <time>2018-12-10T13:16:18Z</time>
      </trkpt>
      <trkpt lat="45.74708" lon="4.31046">
        <ele>553.335</ele>
        <time>2018-12-10T13:16:24Z</time>
      </trkpt>
      <trkpt lat="45.74714" lon="4.31044">
        <ele>552.659</ele>
        <time>2018-12-10T13:16:30Z</time>
      </trkpt>
      <trkpt lat="45.74718" lon="4.31039">
        <ele>552.587</ele>
        <time>2018-12-10T13:16:35Z</time>
      </trkpt>
      <trkpt lat="45.74723" lon="4.31029">
        <ele>552.554</ele>
        <time>2018-12-10T13:16:41Z</time>
      </trkpt>
      <trkpt lat="45.74727" lon="4.31023">
        <ele>552.376</ele>
        <time>2018-12-10T13:16:46Z</time>
      </trkpt>
      <trkpt lat="45.74731" lon="4.31014">
        <ele>552.086</ele>
        <time>2018-12-10T13:16:52Z</time>
      </trkpt>
      <trkpt lat="45.74734" lon="4.31007">
        <ele>552.537</ele>
        <time>2018-12-10T13:16:58Z</time>
      </trkpt>
      <trkpt lat="45.74735" lon="4.30999">
        <ele>552.843</ele>
        <time>2018-12-10T13:17:03Z</time>
      </trkpt>
      <trkpt lat="45.74736" lon="4.30991">
        <ele>552.547</ele>
        <time>2018-12-10T13:17:09Z</time>
      </trkpt>
      <trkpt lat="45.74738" lon="4.30981">
        <ele>552.184</ele>
        <time>2018-12-10T13:17:14Z</time>
      </trkpt>
      <trkpt lat="45.74738" lon="4.30974">
        <ele>551.844</ele>
        <time>2018-12-10T13:17:19Z</time>
      </trkpt>
      <trkpt lat="45.7474" lon="4.30964">
        <ele>551.815</ele>
        <time>2018-12-10T13:17:25Z</time>
      </trkpt>
      <trkpt lat="45.7474" lon="4.30955">
        <ele>551.687</ele>
        <time>2018-12-10T13:17:30Z</time>
      </trkpt>
      <trkpt lat="45.7474" lon="4.30948">
        <ele>551.337</ele>
        <time>2018-12-10T13:17:36Z</time>
      </trkpt>
      <trkpt lat="45.74742" lon="4.30937">
        <ele>551.119</ele>
        <time>2018-12-10T13:17:42Z</time>
      </trkpt>
      <trkpt lat="45.74745" lon="4.30926">
        <ele>551.005</ele>
        <time>2018-12-10T13:17:47Z</time>
      </trkpt>
      <trkpt lat="45.74747" lon="4.30917">
        <ele>550.806</ele>
        <time>2018-12-10T13:17:53Z</time>
      </trkpt>
      <trkpt lat="45.7475" lon="4.3091">
        <ele>550.542</ele>
        <time>2018-12-10T13:17:58Z</time>
      </trkpt>
      <trkpt lat="45.74755" lon="4.30904">
        <ele>549.959</ele>
        <time>2018-12-10T13:18:04Z</time>
      </trkpt>
      <trkpt lat="45.74759" lon="4.309">
        <ele>549.293</ele>
        <time>2018-12-10T13:18:10Z</time>
      </trkpt>
      <trkpt lat="45.74765" lon="4.30899">
        <ele>548.389</ele>
        <time>2018-12-10T13:18:15Z</time>
      </trkpt>
      <trkpt lat="45.7477" lon="4.3089">
        <ele>547.867</ele>
        <time>2018-12-10T13:18:21Z</time>
      </trkpt>
      <trkpt lat="45.74774" lon="4.30884">
        <ele>547.65</ele>
        <time>2018-12-10T13:18:26Z</time>
      </trkpt>
      <trkpt lat="45.74779" lon="4.3088">
        <ele>547.231</ele>
        <time>2018-12-10T13:18:31Z</time>
      </trkpt>
      <trkpt lat="45.74784" lon="4.30876">
        <ele>546.83</ele>
        <time>2018-12-10T13:18:37Z</time>
      </trkpt>
      <trkpt lat="45.7479" lon="4.30867">
        <ele>546.444</ele>
        <time>2018-12-10T13:18:43Z</time>
      </trkpt>
      <trkpt lat="45.74795" lon="4.30862">
        <ele>545.903</ele>
        <time>2018-12-10T13:18:48Z</time>
      </trkpt>
      <trkpt lat="45.748" lon="4.3086">
        <ele>545.285</ele>
        <time>2018-12-10T13:18:54Z</time>
      </trkpt>
      <trkpt lat="45.74804" lon="4.30858">
        <ele>544.66</ele>
        <time>2018-12-10T13:18:59Z</time>
      </trkpt>
      <trkpt lat="45.74811" lon="4.30856">
        <ele>543.234</ele>
        <time>2018-12-10T13:19:05Z</time>
      </trkpt>
      <trkpt lat="45.74818" lon="4.30855">
        <ele>542.272</ele>
        <time>2018-12-10T13:19:11Z</time>
      </trkpt>
      <trkpt lat="45.74819" lon="4.30854">
        <ele>541.504</ele>
        <time>2018-12-10T13:19:16Z</time>
      </trkpt>
      <trkpt lat="45.74826" lon="4.30851">
        <ele>540.573</ele>
        <time>2018-12-10T13:19:22Z</time>
      </trkpt>
      <trkpt lat="45.74833" lon="4.30849">
        <ele>539.113</ele>
        <time>2018-12-10T13:19:28Z</time>
      </trkpt>
      <trkpt lat="45.74836" lon="4.30848">
        <ele>538.642</ele>
        <time>2018-12-10T13:19:34Z</time>
      </trkpt>
      <trkpt lat="45.74835" lon="4.30848">
        <ele>538.29</ele>
        <time>2018-12-10T13:19:40Z</time>
      </trkpt>
      <trkpt lat="45.74842" lon="4.30845">
        <ele>537.371</ele>
        <time>2018-12-10T13:19:45Z</time>
      </trkpt>
      <trkpt lat="45.74849" lon="4.30839">
        <ele>536.46</ele>
        <time>2018-12-10T13:19:51Z</time>
      </trkpt>
      <trkpt lat="45.74854" lon="4.30836">
        <ele>535.664</ele>
        <time>2018-12-10T13:19:56Z</time>
      </trkpt>
      <trkpt lat="45.74858" lon="4.30833">
        <ele>534.917</ele>
        <time>2018-12-10T13:20:02Z</time>
      </trkpt>
      <trkpt lat="45.74862" lon="4.30829">
        <ele>534.233</ele>
        <time>2018-12-10T13:20:07Z</time>
      </trkpt>
      <trkpt lat="45.74866" lon="4.30823">
        <ele>533.751</ele>
        <time>2018-12-10T13:20:12Z</time>
      </trkpt>
      <trkpt lat="45.74868" lon="4.30812">
        <ele>532.658</ele>
        <time>2018-12-10T13:20:18Z</time>
      </trkpt>
      <trkpt lat="45.7487" lon="4.30802">
        <ele>531.033</ele>
        <time>2018-12-10T13:20:24Z</time>
      </trkpt>
      <trkpt lat="45.7487" lon="4.30792">
        <ele>529.343</ele>
        <time>2018-12-10T13:20:31Z</time>
      </trkpt>
      <trkpt lat="45.74866" lon="4.30793">
        <ele>529.1</ele>
        <time>2018-12-10T13:20:37Z</time>
      </trkpt>
      <trkpt lat="45.74863" lon="4.30793">
        <ele>529.261</ele>
        <time>2018-12-10T13:20:42Z</time>
      </trkpt>
      <trkpt lat="45.74862" lon="4.30791">
        <ele>529.228</ele>
        <time>2018-12-10T13:20:48Z</time>
      </trkpt>
      <trkpt lat="45.74864" lon="4.30785">
        <ele>528.413</ele>
        <time>2018-12-10T13:20:53Z</time>
      </trkpt>
      <trkpt lat="45.74869" lon="4.30777">
        <ele>527.557</ele>
        <time>2018-12-10T13:20:58Z</time>
      </trkpt>
      <trkpt lat="45.7487" lon="4.30772">
        <ele>526.54</ele>
        <time>2018-12-10T13:21:03Z</time>
      </trkpt>
      <trkpt lat="45.74871" lon="4.30764">
        <ele>525.395</ele>
        <time>2018-12-10T13:21:09Z</time>
      </trkpt>
      <trkpt lat="45.74873" lon="4.30754">
        <ele>524.481</ele>
        <time>2018-12-10T13:21:14Z</time>
      </trkpt>
      <trkpt lat="45.74874" lon="4.30748">
        <ele>523.654</ele>
        <time>2018-12-10T13:21:19Z</time>
      </trkpt>
      <trkpt lat="45.74874" lon="4.30735">
        <ele>522.204</ele>
        <time>2018-12-10T13:21:25Z</time>
      </trkpt>
      <trkpt lat="45.74874" lon="4.30727">
        <ele>520.931</ele>
        <time>2018-12-10T13:21:31Z</time>
      </trkpt>
      <trkpt lat="45.74874" lon="4.30719">
        <ele>519.787</ele>
        <time>2018-12-10T13:21:37Z</time>
      </trkpt>
      <trkpt lat="45.74874" lon="4.30708">
        <ele>518.86</ele>
        <time>2018-12-10T13:21:43Z</time>
      </trkpt>
      <trkpt lat="45.74874" lon="4.30702">
        <ele>518.054</ele>
        <time>2018-12-10T13:21:48Z</time>
      </trkpt>
      <trkpt lat="45.74875" lon="4.30693">
        <ele>517.441</ele>
        <time>2018-12-10T13:21:54Z</time>
      </trkpt>
      <trkpt lat="45.74875" lon="4.30685">
        <ele>516.78</ele>
        <time>2018-12-10T13:22:00Z</time>
      </trkpt>
      <trkpt lat="45.74874" lon="4.30677">
        <ele>515.821</ele>
        <time>2018-12-10T13:22:06Z</time>
      </trkpt>
      <trkpt lat="45.74876" lon="4.30667">
        <ele>514.808</ele>
        <time>2018-12-10T13:22:12Z</time>
      </trkpt>
      <trkpt lat="45.74878" lon="4.30655">
        <ele>513.783</ele>
        <time>2018-12-10T13:22:18Z</time>
      </trkpt>
      <trkpt lat="45.74879" lon="4.30649">
        <ele>512.524</ele>
        <time>2018-12-10T13:22:24Z</time>
      </trkpt>
      <trkpt lat="45.74881" lon="4.30639">
        <ele>511.607</ele>
        <time>2018-12-10T13:22:29Z</time>
      </trkpt>
      <trkpt lat="45.74883" lon="4.30631">
        <ele>510.824</ele>
        <time>2018-12-10T13:22:34Z</time>
      </trkpt>
      <trkpt lat="45.74883" lon="4.30624">
        <ele>509.927</ele>
        <time>2018-12-10T13:22:40Z</time>
      </trkpt>
      <trkpt lat="45.74884" lon="4.30618">
        <ele>509.256</ele>
        <time>2018-12-10T13:22:45Z</time>
      </trkpt>
      <trkpt lat="45.74886" lon="4.30613">
        <ele>508.441</ele>
        <time>2018-12-10T13:22:50Z</time>
      </trkpt>
      <trkpt lat="45.74891" lon="4.30605">
        <ele>507.069</ele>
        <time>2018-12-10T13:22:56Z</time>
      </trkpt>
      <trkpt lat="45.74895" lon="4.30598">
        <ele>506.273</ele>
        <time>2018-12-10T13:23:02Z</time>
      </trkpt>
      <trkpt lat="45.74899" lon="4.30592">
        <ele>505.796</ele>
        <time>2018-12-10T13:23:07Z</time>
      </trkpt>
      <trkpt lat="45.74903" lon="4.30588">
        <ele>504.677</ele>
        <time>2018-12-10T13:23:13Z</time>
      </trkpt>
      <trkpt lat="45.74906" lon="4.30582">
        <ele>504.23</ele>
        <time>2018-12-10T13:23:18Z</time>
      </trkpt>
      <trkpt lat="45.7491" lon="4.30576">
        <ele>503.868</ele>
        <time>2018-12-10T13:23:23Z</time>
      </trkpt>
      <trkpt lat="45.74914" lon="4.30569">
        <ele>503.7</ele>
        <time>2018-12-10T13:23:29Z</time>
      </trkpt>
      <trkpt lat="45.74919" lon="4.30567">
        <ele>503.238</ele>
        <time>2018-12-10T13:23:34Z</time>
      </trkpt>
      <trkpt lat="45.74924" lon="4.3056">
        <ele>502.52</ele>
        <time>2018-12-10T13:23:40Z</time>
      </trkpt>
      <trkpt lat="45.74927" lon="4.30555">
        <ele>502.087</ele>
        <time>2018-12-10T13:23:46Z</time>
      </trkpt>
      <trkpt lat="45.74931" lon="4.30551">
        <ele>501.509</ele>
        <time>2018-12-10T13:23:51Z</time>
      </trkpt>
      <trkpt lat="45.74938" lon="4.30545">
        <ele>500.841</ele>
        <time>2018-12-10T13:23:56Z</time>
      </trkpt>
      <trkpt lat="45.74942" lon="4.30541">
        <ele>500.166</ele>
        <time>2018-12-10T13:24:02Z</time>
      </trkpt>
      <trkpt lat="45.74946" lon="4.30538">
        <ele>499.69</ele>
        <time>2018-12-10T13:24:07Z</time>
      </trkpt>
      <trkpt lat="45.7495" lon="4.30535">
        <ele>498.957</ele>
        <time>2018-12-10T13:24:13Z</time>
      </trkpt>
      <trkpt lat="45.74954" lon="4.3053">
        <ele>497.944</ele>
        <time>2018-12-10T13:24:19Z</time>
      </trkpt>
      <trkpt lat="45.74957" lon="4.30527">
        <ele>496.975</ele>
        <time>2018-12-10T13:24:25Z</time>
      </trkpt>
      <trkpt lat="45.74964" lon="4.30523">
        <ele>496.332</ele>
        <time>2018-12-10T13:24:31Z</time>
      </trkpt>
      <trkpt lat="45.74967" lon="4.3052">
        <ele>495.516</ele>
        <time>2018-12-10T13:24:37Z</time>
      </trkpt>
      <trkpt lat="45.74972" lon="4.30517">
        <ele>494.659</ele>
        <time>2018-12-10T13:24:42Z</time>
      </trkpt>
      <trkpt lat="45.74975" lon="4.30512">
        <ele>493.2</ele>
        <time>2018-12-10T13:24:48Z</time>
      </trkpt>
      <trkpt lat="45.74976" lon="4.30513">
        <ele>492.53</ele>
        <time>2018-12-10T13:24:53Z</time>
      </trkpt>
      <trkpt lat="45.74983" lon="4.30508">
        <ele>491.692</ele>
        <time>2018-12-10T13:24:59Z</time>
      </trkpt>
      <trkpt lat="45.74986" lon="4.30507">
        <ele>491.223</ele>
        <time>2018-12-10T13:25:05Z</time>
      </trkpt>
      <trkpt lat="45.74988" lon="4.30507">
        <ele>490.675</ele>
        <time>2018-12-10T13:25:11Z</time>
      </trkpt>
      <trkpt lat="45.7499" lon="4.30506">
        <ele>489.991</ele>
        <time>2018-12-10T13:25:17Z</time>
      </trkpt>
      <trkpt lat="45.7499" lon="4.30505">
        <ele>490.134</ele>
        <time>2018-12-10T13:25:23Z</time>
      </trkpt>
      <trkpt lat="45.74993" lon="4.30501">
        <ele>489.231</ele>
        <time>2018-12-10T13:25:28Z</time>
      </trkpt>
      <trkpt lat="45.74998" lon="4.30493">
        <ele>488.026</ele>
        <time>2018-12-10T13:25:34Z</time>
      </trkpt>
      <trkpt lat="45.75003" lon="4.30481">
        <ele>487.163</ele>
        <time>2018-12-10T13:25:39Z</time>
      </trkpt>
      <trkpt lat="45.75" lon="4.30472">
        <ele>486.578</ele>
        <time>2018-12-10T13:25:45Z</time>
      </trkpt>
      <trkpt lat="45.74999" lon="4.30468">
        <ele>485.987</ele>
        <time>2018-12-10T13:25:50Z</time>
      </trkpt>
      <trkpt lat="45.74996" lon="4.30462">
        <ele>486.126</ele>
        <time>2018-12-10T13:25:56Z</time>
      </trkpt>
      <trkpt lat="45.74989" lon="4.30452">
        <ele>486.157</ele>
        <time>2018-12-10T13:26:02Z</time>
      </trkpt>
      <trkpt lat="45.74987" lon="4.3045">
        <ele>486.53</ele>
        <time>2018-12-10T13:26:08Z</time>
      </trkpt>
      <trkpt lat="45.74984" lon="4.30442">
        <ele>487.204</ele>
        <time>2018-12-10T13:26:14Z</time>
      </trkpt>
      <trkpt lat="45.74982" lon="4.30435">
        <ele>487.629</ele>
        <time>2018-12-10T13:26:20Z</time>
      </trkpt>
      <trkpt lat="45.74979" lon="4.30428">
        <ele>487.984</ele>
        <time>2018-12-10T13:26:25Z</time>
      </trkpt>
      <trkpt lat="45.74977" lon="4.30419">
        <ele>488.551</ele>
        <time>2018-12-10T13:26:31Z</time>
      </trkpt>
      <trkpt lat="45.74972" lon="4.30412">
        <ele>488.895</ele>
        <time>2018-12-10T13:26:37Z</time>
      </trkpt>
      <trkpt lat="45.74968" lon="4.3041">
        <ele>488.966</ele>
        <time>2018-12-10T13:26:43Z</time>
      </trkpt>
      <trkpt lat="45.74964" lon="4.30407">
        <ele>488.837</ele>
        <time>2018-12-10T13:26:48Z</time>
      </trkpt>
      <trkpt lat="45.74959" lon="4.30411">
        <ele>488.821</ele>
        <time>2018-12-10T13:26:54Z</time>
      </trkpt>
      <trkpt lat="45.74953" lon="4.30417">
        <ele>489.297</ele>
        <time>2018-12-10T13:27:00Z</time>
      </trkpt>
      <trkpt lat="45.74946" lon="4.3042">
        <ele>489.938</ele>
        <time>2018-12-10T13:27:06Z</time>
      </trkpt>
      <trkpt lat="45.74943" lon="4.3042">
        <ele>490.798</ele>
        <time>2018-12-10T13:27:11Z</time>
      </trkpt>
      <trkpt lat="45.74935" lon="4.30418">
        <ele>491.839</ele>
        <time>2018-12-10T13:27:17Z</time>
      </trkpt>
      <trkpt lat="45.74931" lon="4.30415">
        <ele>492.526</ele>
        <time>2018-12-10T13:27:23Z</time>
      </trkpt>
      <trkpt lat="45.74927" lon="4.30415">
        <ele>493.348</ele>
        <time>2018-12-10T13:27:29Z</time>
      </trkpt>
      <trkpt lat="45.74921" lon="4.3041">
        <ele>494.576</ele>
        <time>2018-12-10T13:27:35Z</time>
      </trkpt>
      <trkpt lat="45.74917" lon="4.30405">
        <ele>495.34</ele>
        <time>2018-12-10T13:27:41Z</time>
      </trkpt>
      <trkpt lat="45.74917" lon="4.304">
        <ele>495.625</ele>
        <time>2018-12-10T13:27:46Z</time>
      </trkpt>
      <trkpt lat="45.74919" lon="4.30394">
        <ele>495.98</ele>
        <time>2018-12-10T13:27:52Z</time>
      </trkpt>
      <trkpt lat="45.74922" lon="4.3039">
        <ele>496.321</ele>
        <time>2018-12-10T13:27:58Z</time>
      </trkpt>
      <trkpt lat="45.74927" lon="4.3039">
        <ele>497.079</ele>
        <time>2018-12-10T13:28:04Z</time>
      </trkpt>
      <trkpt lat="45.74931" lon="4.30389">
        <ele>497.808</ele>
        <time>2018-12-10T13:28:10Z</time>
      </trkpt>
      <trkpt lat="45.74939" lon="4.30386">
        <ele>498.574</ele>
        <time>2018-12-10T13:28:16Z</time>
      </trkpt>
      <trkpt lat="45.74942" lon="4.3038">
        <ele>499.328</ele>
        <time>2018-12-10T13:28:22Z</time>
      </trkpt>
      <trkpt lat="45.74946" lon="4.30375">
        <ele>499.971</ele>
        <time>2018-12-10T13:28:28Z</time>
      </trkpt>
      <trkpt lat="45.74949" lon="4.30371">
        <ele>500.753</ele>
        <time>2018-12-10T13:28:34Z</time>
      </trkpt>
      <trkpt lat="45.7495" lon="4.3037">
        <ele>501.576</ele>
        <time>2018-12-10T13:28:39Z</time>
      </trkpt>
      <trkpt lat="45.74954" lon="4.30367">
        <ele>502.141</ele>
        <time>2018-12-10T13:28:44Z</time>
      </trkpt>
      <trkpt lat="45.74957" lon="4.30364">
        <ele>502.506</ele>
        <time>2018-12-10T13:28:49Z</time>
      </trkpt>
      <trkpt lat="45.7496" lon="4.30361">
        <ele>502.924</ele>
        <time>2018-12-10T13:28:55Z</time>
      </trkpt>
      <trkpt lat="45.74963" lon="4.30358">
        <ele>503.281</ele>
        <time>2018-12-10T13:29:00Z</time>
      </trkpt>
      <trkpt lat="45.74964" lon="4.30355">
        <ele>503.743</ele>
        <time>2018-12-10T13:29:06Z</time>
      </trkpt>
      <trkpt lat="45.74967" lon="4.30356">
        <ele>503.831</ele>
        <time>2018-12-10T13:29:11Z</time>
      </trkpt>
      <trkpt lat="45.74968" lon="4.30357">
        <ele>504.238</ele>
        <time>2018-12-10T13:29:17Z</time>
      </trkpt>
      <trkpt lat="45.74968" lon="4.30357">
        <ele>504.419</ele>
        <time>2018-12-10T13:29:23Z</time>
      </trkpt>
      <trkpt lat="45.74967" lon="4.30358">
        <ele>505.161</ele>
        <time>2018-12-10T13:29:29Z</time>
      </trkpt>
      <trkpt lat="45.74966" lon="4.30356">
        <ele>505.2</ele>
        <time>2018-12-10T13:29:34Z</time>
      </trkpt>
      <trkpt lat="45.74968" lon="4.30351">
        <ele>505.199</ele>
        <time>2018-12-10T13:29:40Z</time>
      </trkpt>
      <trkpt lat="45.7497" lon="4.30348">
        <ele>505.413</ele>
        <time>2018-12-10T13:29:46Z</time>
      </trkpt>
      <trkpt lat="45.74975" lon="4.30345">
        <ele>506.018</ele>
        <time>2018-12-10T13:29:52Z</time>
      </trkpt>
      <trkpt lat="45.74981" lon="4.30343">
        <ele>506.82</ele>
        <time>2018-12-10T13:29:58Z</time>
      </trkpt>
      <trkpt lat="45.74985" lon="4.30339">
        <ele>507.287</ele>
        <time>2018-12-10T13:30:03Z</time>
      </trkpt>
      <trkpt lat="45.7499" lon="4.30339">
        <ele>508.314</ele>
        <time>2018-12-10T13:30:08Z</time>
      </trkpt>
      <trkpt lat="45.74993" lon="4.30338">
        <ele>509.722</ele>
        <time>2018-12-10T13:30:14Z</time>
      </trkpt>
      <trkpt lat="45.74997" lon="4.30334">
        <ele>510.507</ele>
        <time>2018-12-10T13:30:20Z</time>
      </trkpt>
      <trkpt lat="45.75002" lon="4.30334">
        <ele>510.757</ele>
        <time>2018-12-10T13:30:25Z</time>
      </trkpt>
      <trkpt lat="45.75008" lon="4.30332">
        <ele>510.858</ele>
        <time>2018-12-10T13:30:31Z</time>
      </trkpt>
      <trkpt lat="45.75013" lon="4.30333">
        <ele>510.735</ele>
        <time>2018-12-10T13:30:36Z</time>
      </trkpt>
      <trkpt lat="45.75019" lon="4.30336">
        <ele>510.779</ele>
        <time>2018-12-10T13:30:41Z</time>
      </trkpt>
      <trkpt lat="45.75023" lon="4.30337">
        <ele>510.99</ele>
        <time>2018-12-10T13:30:47Z</time>
      </trkpt>
      <trkpt lat="45.75027" lon="4.3034">
        <ele>510.985</ele>
        <time>2018-12-10T13:30:52Z</time>
      </trkpt>
      <trkpt lat="45.75033" lon="4.30341">
        <ele>510.612</ele>
        <time>2018-12-10T13:30:58Z</time>
      </trkpt>
      <trkpt lat="45.75039" lon="4.30343">
        <ele>510.29</ele>
        <time>2018-12-10T13:31:04Z</time>
      </trkpt>
      <trkpt lat="45.75044" lon="4.30343">
        <ele>510.258</ele>
        <time>2018-12-10T13:31:10Z</time>
      </trkpt>
      <trkpt lat="45.7505" lon="4.30343">
        <ele>510.476</ele>
        <time>2018-12-10T13:31:15Z</time>
      </trkpt>
      <trkpt lat="45.75055" lon="4.30341">
        <ele>511.385</ele>
        <time>2018-12-10T13:31:20Z</time>
      </trkpt>
      <trkpt lat="45.7506" lon="4.30339">
        <ele>513.148</ele>
        <time>2018-12-10T13:31:26Z</time>
      </trkpt>
      <trkpt lat="45.75065" lon="4.3034">
        <ele>514.766</ele>
        <time>2018-12-10T13:31:32Z</time>
      </trkpt>
      <trkpt lat="45.7507" lon="4.3034">
        <ele>515.998</ele>
        <time>2018-12-10T13:31:37Z</time>
      </trkpt>
      <trkpt lat="45.75074" lon="4.3034">
        <ele>517.081</ele>
        <time>2018-12-10T13:31:43Z</time>
      </trkpt>
      <trkpt lat="45.7508" lon="4.30339">
        <ele>518.117</ele>
        <time>2018-12-10T13:31:49Z</time>
      </trkpt>
      <trkpt lat="45.75087" lon="4.30339">
        <ele>518.78</ele>
        <time>2018-12-10T13:31:54Z</time>
      </trkpt>
      <trkpt lat="45.75092" lon="4.30339">
        <ele>520.1</ele>
        <time>2018-12-10T13:32:00Z</time>
      </trkpt>
      <trkpt lat="45.75096" lon="4.3034">
        <ele>521.093</ele>
        <time>2018-12-10T13:32:06Z</time>
      </trkpt>
      <trkpt lat="45.75102" lon="4.30342">
        <ele>522.453</ele>
        <time>2018-12-10T13:32:12Z</time>
      </trkpt>
      <trkpt lat="45.7511" lon="4.30341">
        <ele>523.421</ele>
        <time>2018-12-10T13:32:18Z</time>
      </trkpt>
      <trkpt lat="45.75117" lon="4.30341">
        <ele>524.332</ele>
        <time>2018-12-10T13:32:23Z</time>
      </trkpt>
      <trkpt lat="45.75121" lon="4.30342">
        <ele>525.246</ele>
        <time>2018-12-10T13:32:28Z</time>
      </trkpt>
      <trkpt lat="45.75124" lon="4.30343">
        <ele>526.536</ele>
        <time>2018-12-10T13:32:34Z</time>
      </trkpt>
      <trkpt lat="45.75129" lon="4.30343">
        <ele>527.622</ele>
        <time>2018-12-10T13:32:40Z</time>
      </trkpt>
      <trkpt lat="45.75133" lon="4.30343">
        <ele>528.642</ele>
        <time>2018-12-10T13:32:45Z</time>
      </trkpt>
      <trkpt lat="45.75138" lon="4.30344">
        <ele>529.796</ele>
        <time>2018-12-10T13:32:51Z</time>
      </trkpt>
      <trkpt lat="45.75142" lon="4.30343">
        <ele>531.025</ele>
        <time>2018-12-10T13:32:57Z</time>
      </trkpt>
      <trkpt lat="45.75147" lon="4.30341">
        <ele>532.153</ele>
        <time>2018-12-10T13:33:02Z</time>
      </trkpt>
      <trkpt lat="45.75153" lon="4.30339">
        <ele>533.494</ele>
        <time>2018-12-10T13:33:08Z</time>
      </trkpt>
      <trkpt lat="45.75159" lon="4.30337">
        <ele>534.581</ele>
        <time>2018-12-10T13:33:14Z</time>
      </trkpt>
      <trkpt lat="45.75164" lon="4.30336">
        <ele>535.553</ele>
        <time>2018-12-10T13:33:19Z</time>
      </trkpt>
      <trkpt lat="45.7517" lon="4.30334">
        <ele>536.25</ele>
        <time>2018-12-10T13:33:25Z</time>
      </trkpt>
      <trkpt lat="45.75175" lon="4.3033">
        <ele>537.385</ele>
        <time>2018-12-10T13:33:30Z</time>
      </trkpt>
      <trkpt lat="45.75182" lon="4.30327">
        <ele>538.71</ele>
        <time>2018-12-10T13:33:36Z</time>
      </trkpt>
      <trkpt lat="45.75188" lon="4.30325">
        <ele>539.837</ele>
        <time>2018-12-10T13:33:41Z</time>
      </trkpt>
      <trkpt lat="45.75195" lon="4.30321">
        <ele>541.056</ele>
        <time>2018-12-10T13:33:47Z</time>
      </trkpt>
      <trkpt lat="45.752" lon="4.30319">
        <ele>541.913</ele>
        <time>2018-12-10T13:33:52Z</time>
      </trkpt>
      <trkpt lat="45.75209" lon="4.30315">
        <ele>543.103</ele>
        <time>2018-12-10T13:33:58Z</time>
      </trkpt>
      <trkpt lat="45.75216" lon="4.30311">
        <ele>544.24</ele>
        <time>2018-12-10T13:34:04Z</time>
      </trkpt>
      <trkpt lat="45.75221" lon="4.3031">
        <ele>545.252</ele>
        <time>2018-12-10T13:34:09Z</time>
      </trkpt>
      <trkpt lat="45.75227" lon="4.30307">
        <ele>546.563</ele>
        <time>2018-12-10T13:34:15Z</time>
      </trkpt>
      <trkpt lat="45.75232" lon="4.30306">
        <ele>547.269</ele>
        <time>2018-12-10T13:34:20Z</time>
      </trkpt>
      <trkpt lat="45.7524" lon="4.30307">
        <ele>548.079</ele>
        <time>2018-12-10T13:34:26Z</time>
      </trkpt>
      <trkpt lat="45.75248" lon="4.30306">
        <ele>548.219</ele>
        <time>2018-12-10T13:34:31Z</time>
      </trkpt>
      <trkpt lat="45.75253" lon="4.30302">
        <ele>548.451</ele>
        <time>2018-12-10T13:34:37Z</time>
      </trkpt>
      <trkpt lat="45.75256" lon="4.30299">
        <ele>548.862</ele>
        <time>2018-12-10T13:34:42Z</time>
      </trkpt>
      <trkpt lat="45.75257" lon="4.30299">
        <ele>549.335</ele>
        <time>2018-12-10T13:34:47Z</time>
      </trkpt>
      <trkpt lat="45.75257" lon="4.30301">
        <ele>549.621</ele>
        <time>2018-12-10T13:34:52Z</time>
      </trkpt>
      <trkpt lat="45.75258" lon="4.30301">
        <ele>549.59</ele>
        <time>2018-12-10T13:34:58Z</time>
      </trkpt>
      <trkpt lat="45.75258" lon="4.30303">
        <ele>549.452</ele>
        <time>2018-12-10T13:35:03Z</time>
      </trkpt>
      <trkpt lat="45.75256" lon="4.30303">
        <ele>549.447</ele>
        <time>2018-12-10T13:35:08Z</time>
      </trkpt>
      <trkpt lat="45.75256" lon="4.30303">
        <ele>549.6</ele>
        <time>2018-12-10T13:35:14Z</time>
      </trkpt>
      <trkpt lat="45.75256" lon="4.30304">
        <ele>549.176</ele>
        <time>2018-12-10T13:35:20Z</time>
      </trkpt>
      <trkpt lat="45.75258" lon="4.30304">
        <ele>549.292</ele>
        <time>2018-12-10T13:35:25Z</time>
      </trkpt>
      <trkpt lat="45.7526" lon="4.303">
        <ele>549.233</ele>
        <time>2018-12-10T13:35:30Z</time>
      </trkpt>
      <trkpt lat="45.75261" lon="4.30302">
        <ele>549.435</ele>
        <time>2018-12-10T13:35:36Z</time>
      </trkpt>
      <trkpt lat="45.75261" lon="4.30302">
        <ele>549.442</ele>
        <time>2018-12-10T13:35:41Z</time>
      </trkpt>
      <trkpt lat="45.75259" lon="4.30303">
        <ele>549.373</ele>
        <time>2018-12-10T13:35:47Z</time>
      </trkpt>
      <trkpt lat="45.75259" lon="4.30304">
        <ele>549.502</ele>
        <time>2018-12-10T13:35:52Z</time>
      </trkpt>
      <trkpt lat="45.75262" lon="4.30306">
        <ele>549.897</ele>
        <time>2018-12-10T13:35:58Z</time>
      </trkpt>
      <trkpt lat="45.75265" lon="4.30306">
        <ele>550.559</ele>
        <time>2018-12-10T13:36:04Z</time>
      </trkpt>
      <trkpt lat="45.75265" lon="4.30311">
        <ele>550.451</ele>
        <time>2018-12-10T13:36:10Z</time>
      </trkpt>
      <trkpt lat="45.75263" lon="4.30315">
        <ele>550.249</ele>
        <time>2018-12-10T13:36:16Z</time>
      </trkpt>
      <trkpt lat="45.75262" lon="4.30319">
        <ele>550.394</ele>
        <time>2018-12-10T13:36:21Z</time>
      </trkpt>
      <trkpt lat="45.7526" lon="4.30323">
        <ele>550.793</ele>
        <time>2018-12-10T13:36:27Z</time>
      </trkpt>
      <trkpt lat="45.75256" lon="4.30326">
        <ele>550.613</ele>
        <time>2018-12-10T13:36:32Z</time>
      </trkpt>
      <trkpt lat="45.75254" lon="4.3033">
        <ele>550.35</ele>
        <time>2018-12-10T13:36:38Z</time>
      </trkpt>
      <trkpt lat="45.75252" lon="4.30332">
        <ele>550.332</ele>
        <time>2018-12-10T13:36:44Z</time>
      </trkpt>
      <trkpt lat="45.7525" lon="4.30335">
        <ele>550.073</ele>
        <time>2018-12-10T13:36:49Z</time>
      </trkpt>
      <trkpt lat="45.75248" lon="4.30336">
        <ele>549.875</ele>
        <time>2018-12-10T13:36:55Z</time>
      </trkpt>
      <trkpt lat="45.75248" lon="4.30339">
        <ele>549.76</ele>
        <time>2018-12-10T13:37:01Z</time>
      </trkpt>
      <trkpt lat="45.75249" lon="4.3034">
        <ele>549.587</ele>
        <time>2018-12-10T13:37:06Z</time>
      </trkpt>
      <trkpt lat="45.75248" lon="4.30337">
        <ele>549.701</ele>
        <time>2018-12-10T13:37:11Z</time>
      </trkpt>
      <trkpt lat="45.75248" lon="4.30338">
        <ele>549.798</ele>
        <time>2018-12-10T13:37:17Z</time>
      </trkpt>
      <trkpt lat="45.75247" lon="4.30338">
        <ele>549.736</ele>
        <time>2018-12-10T13:37:22Z</time>
      </trkpt>
      <trkpt lat="45.75247" lon="4.3034">
        <ele>549.402</ele>
        <time>2018-12-10T13:37:28Z</time>
      </trkpt>
      <trkpt lat="45.75247" lon="4.3034">
        <ele>549.329</ele>
        <time>2018-12-10T13:37:33Z</time>
      </trkpt>
      <trkpt lat="45.75247" lon="4.30339">
        <ele>549.344</ele>
        <time>2018-12-10T13:37:39Z</time>
      </trkpt>
      <trkpt lat="45.75247" lon="4.30339">
        <ele>549.43</ele>
        <time>2018-12-10T13:37:44Z</time>
      </trkpt>
      <trkpt lat="45.75248" lon="4.30339">
        <ele>549.62</ele>
        <time>2018-12-10T13:37:50Z</time>
      </trkpt>
      <trkpt lat="45.75248" lon="4.30339">
        <ele>549.673</ele>
        <time>2018-12-10T13:37:55Z</time>
      </trkpt>
      <trkpt lat="45.75249" lon="4.30338">
        <ele>549.666</ele>
        <time>2018-12-10T13:38:01Z</time>
      </trkpt>
      <trkpt lat="45.75249" lon="4.30337">
        <ele>549.865</ele>
        <time>2018-12-10T13:38:06Z</time>
      </trkpt>
      <trkpt lat="45.75249" lon="4.30337">
        <ele>549.812</ele>
        <time>2018-12-10T13:38:12Z</time>
      </trkpt>
      <trkpt lat="45.75247" lon="4.3034">
        <ele>549.446</ele>
        <time>2018-12-10T13:38:17Z</time>
      </trkpt>
      <trkpt lat="45.75245" lon="4.30342">
        <ele>549.165</ele>
        <time>2018-12-10T13:38:22Z</time>
      </trkpt>
      <trkpt lat="45.75244" lon="4.30345">
        <ele>548.893</ele>
        <time>2018-12-10T13:38:28Z</time>
      </trkpt>
      <trkpt lat="45.75244" lon="4.30345">
        <ele>548.845</ele>
        <time>2018-12-10T13:38:33Z</time>
      </trkpt>
      <trkpt lat="45.75243" lon="4.30346">
        <ele>549.031</ele>
        <time>2018-12-10T13:38:38Z</time>
      </trkpt>
      <trkpt lat="45.75241" lon="4.30345">
        <ele>549.35</ele>
        <time>2018-12-10T13:38:44Z</time>
      </trkpt>
      <trkpt lat="45.75239" lon="4.30345">
        <ele>548.994</ele>
        <time>2018-12-10T13:38:49Z</time>
      </trkpt>
      <trkpt lat="45.75237" lon="4.30347">
        <ele>548.813</ele>
        <time>2018-12-10T13:38:55Z</time>
      </trkpt>
      <trkpt lat="45.75235" lon="4.30351">
        <ele>548.803</ele>
        <time>2018-12-10T13:39:00Z</time>
      </trkpt>
      <trkpt lat="45.75231" lon="4.30356">
        <ele>548.894</ele>
        <time>2018-12-10T13:39:06Z</time>
      </trkpt>
      <trkpt lat="45.75227" lon="4.3036">
        <ele>548.894</ele>
        <time>2018-12-10T13:39:11Z</time>
      </trkpt>
      <trkpt lat="45.75225" lon="4.30363">
        <ele>548.754</ele>
        <time>2018-12-10T13:39:17Z</time>
      </trkpt>
      <trkpt lat="45.75226" lon="4.30367">
        <ele>548.301</ele>
        <time>2018-12-10T13:39:22Z</time>
      </trkpt>
      <trkpt lat="45.75225" lon="4.30371">
        <ele>547.764</ele>
        <time>2018-12-10T13:39:28Z</time>
      </trkpt>
      <trkpt lat="45.75225" lon="4.30377">
        <ele>547.178</ele>
        <time>2018-12-10T13:39:33Z</time>
      </trkpt>
      <trkpt lat="45.75226" lon="4.30386">
        <ele>546.559</ele>
        <time>2018-12-10T13:39:39Z</time>
      </trkpt>
      <trkpt lat="45.75226" lon="4.30393">
        <ele>546.211</ele>
        <time>2018-12-10T13:39:44Z</time>
      </trkpt>
      <trkpt lat="45.75228" lon="4.304">
        <ele>545.453</ele>
        <time>2018-12-10T13:39:50Z</time>
      </trkpt>
      <trkpt lat="45.75229" lon="4.30409">
        <ele>544.801</ele>
        <time>2018-12-10T13:39:55Z</time>
      </trkpt>
      <trkpt lat="45.7523" lon="4.30417">
        <ele>544.21</ele>
        <time>2018-12-10T13:40:00Z</time>
      </trkpt>
      <trkpt lat="45.75232" lon="4.30425">
        <ele>543.385</ele>
        <time>2018-12-10T13:40:06Z</time>
      </trkpt>
      <trkpt lat="45.75232" lon="4.30432">
        <ele>542.655</ele>
        <time>2018-12-10T13:40:11Z</time>
      </trkpt>
      <trkpt lat="45.75233" lon="4.30443">
        <ele>541.984</ele>
        <time>2018-12-10T13:40:17Z</time>
      </trkpt>
      <trkpt lat="45.75233" lon="4.30448">
        <ele>541.417</ele>
        <time>2018-12-10T13:40:22Z</time>
      </trkpt>
      <trkpt lat="45.75232" lon="4.30458">
        <ele>540.891</ele>
        <time>2018-12-10T13:40:28Z</time>
      </trkpt>
      <trkpt lat="45.7523" lon="4.30467">
        <ele>540.294</ele>
        <time>2018-12-10T13:40:34Z</time>
      </trkpt>
      <trkpt lat="45.75227" lon="4.30475">
        <ele>539.542</ele>
        <time>2018-12-10T13:40:40Z</time>
      </trkpt>
      <trkpt lat="45.75224" lon="4.3048">
        <ele>539.058</ele>
        <time>2018-12-10T13:40:46Z</time>
      </trkpt>
      <trkpt lat="45.75221" lon="4.30487">
        <ele>538.717</ele>
        <time>2018-12-10T13:40:52Z</time>
      </trkpt>
      <trkpt lat="45.75218" lon="4.30493">
        <ele>538.358</ele>
        <time>2018-12-10T13:40:57Z</time>
      </trkpt>
      <trkpt lat="45.75216" lon="4.30499">
        <ele>537.653</ele>
        <time>2018-12-10T13:41:03Z</time>
      </trkpt>
      <trkpt lat="45.75214" lon="4.30504">
        <ele>537.135</ele>
        <time>2018-12-10T13:41:08Z</time>
      </trkpt>
      <trkpt lat="45.75211" lon="4.30513">
        <ele>536.28</ele>
        <time>2018-12-10T13:41:14Z</time>
      </trkpt>
      <trkpt lat="45.75207" lon="4.30523">
        <ele>535.415</ele>
        <time>2018-12-10T13:41:20Z</time>
      </trkpt>
      <trkpt lat="45.75206" lon="4.30533">
        <ele>534.698</ele>
        <time>2018-12-10T13:41:26Z</time>
      </trkpt>
      <trkpt lat="45.75206" lon="4.30541">
        <ele>533.563</ele>
        <time>2018-12-10T13:41:32Z</time>
      </trkpt>
      <trkpt lat="45.75208" lon="4.3055">
        <ele>532.94</ele>
        <time>2018-12-10T13:41:38Z</time>
      </trkpt>
      <trkpt lat="45.7521" lon="4.30555">
        <ele>532.308</ele>
        <time>2018-12-10T13:41:43Z</time>
      </trkpt>
      <trkpt lat="45.75213" lon="4.30561">
        <ele>531.294</ele>
        <time>2018-12-10T13:41:49Z</time>
      </trkpt>
      <trkpt lat="45.75218" lon="4.3057">
        <ele>530.346</ele>
        <time>2018-12-10T13:41:55Z</time>
      </trkpt>
      <trkpt lat="45.7522" lon="4.30579">
        <ele>529.271</ele>
        <time>2018-12-10T13:42:00Z</time>
      </trkpt>
      <trkpt lat="45.75221" lon="4.30584">
        <ele>527.95</ele>
        <time>2018-12-10T13:42:05Z</time>
      </trkpt>
      <trkpt lat="45.75224" lon="4.3059">
        <ele>526.906</ele>
        <time>2018-12-10T13:42:11Z</time>
      </trkpt>
      <trkpt lat="45.75227" lon="4.30598">
        <ele>526.017</ele>
        <time>2018-12-10T13:42:16Z</time>
      </trkpt>
      <trkpt lat="45.75227" lon="4.30604">
        <ele>525.133</ele>
        <time>2018-12-10T13:42:21Z</time>
      </trkpt>
      <trkpt lat="45.75229" lon="4.30615">
        <ele>524.601</ele>
        <time>2018-12-10T13:42:27Z</time>
      </trkpt>
      <trkpt lat="45.75232" lon="4.30623">
        <ele>524.123</ele>
        <time>2018-12-10T13:42:32Z</time>
      </trkpt>
      <trkpt lat="45.75233" lon="4.30631">
        <ele>523.613</ele>
        <time>2018-12-10T13:42:37Z</time>
      </trkpt>
      <trkpt lat="45.75232" lon="4.30643">
        <ele>522.741</ele>
        <time>2018-12-10T13:42:43Z</time>
      </trkpt>
      <trkpt lat="45.75227" lon="4.30652">
        <ele>521.505</ele>
        <time>2018-12-10T13:42:49Z</time>
      </trkpt>
      <trkpt lat="45.75224" lon="4.30663">
        <ele>520.76</ele>
        <time>2018-12-10T13:42:55Z</time>
      </trkpt>
      <trkpt lat="45.75219" lon="4.30671">
        <ele>520.269</ele>
        <time>2018-12-10T13:43:01Z</time>
      </trkpt>
      <trkpt lat="45.75213" lon="4.30678">
        <ele>520.152</ele>
        <time>2018-12-10T13:43:07Z</time>
      </trkpt>
      <trkpt lat="45.75206" lon="4.30685">
        <ele>519.925</ele>
        <time>2018-12-10T13:43:12Z</time>
      </trkpt>
      <trkpt lat="45.75202" lon="4.30691">
        <ele>519.725</ele>
        <time>2018-12-10T13:43:17Z</time>
      </trkpt>
      <trkpt lat="45.75197" lon="4.30696">
        <ele>519.197</ele>
        <time>2018-12-10T13:43:23Z</time>
      </trkpt>
      <trkpt lat="45.75193" lon="4.30701">
        <ele>518.93</ele>
        <time>2018-12-10T13:43:29Z</time>
      </trkpt>
      <trkpt lat="45.75188" lon="4.30707">
        <ele>518.592</ele>
        <time>2018-12-10T13:43:35Z</time>
      </trkpt>
      <trkpt lat="45.75184" lon="4.30714">
        <ele>518.365</ele>
        <time>2018-12-10T13:43:41Z</time>
      </trkpt>
      <trkpt lat="45.75179" lon="4.30719">
        <ele>518.226</ele>
        <time>2018-12-10T13:43:46Z</time>
      </trkpt>
      <trkpt lat="45.75172" lon="4.30725">
        <ele>517.997</ele>
        <time>2018-12-10T13:43:52Z</time>
      </trkpt>
      <trkpt lat="45.75168" lon="4.30729">
        <ele>517.897</ele>
        <time>2018-12-10T13:43:57Z</time>
      </trkpt>
      <trkpt lat="45.75161" lon="4.30737">
        <ele>517.953</ele>
        <time>2018-12-10T13:44:03Z</time>
      </trkpt>
      <trkpt lat="45.75156" lon="4.30741">
        <ele>517.914</ele>
        <time>2018-12-10T13:44:08Z</time>
      </trkpt>
      <trkpt lat="45.75153" lon="4.30746">
        <ele>517.737</ele>
        <time>2018-12-10T13:44:14Z</time>
      </trkpt>
      <trkpt lat="45.7515" lon="4.3075">
        <ele>517.253</ele>
        <time>2018-12-10T13:44:19Z</time>
      </trkpt>
      <trkpt lat="45.75144" lon="4.30755">
        <ele>516.565</ele>
        <time>2018-12-10T13:44:25Z</time>
      </trkpt>
      <trkpt lat="45.75141" lon="4.30755">
        <ele>515.694</ele>
        <time>2018-12-10T13:44:30Z</time>
      </trkpt>
      <trkpt lat="45.75142" lon="4.30754">
        <ele>514.952</ele>
        <time>2018-12-10T13:44:36Z</time>
      </trkpt>
      <trkpt lat="45.75142" lon="4.30754">
        <ele>514.535</ele>
        <time>2018-12-10T13:44:41Z</time>
      </trkpt>
      <trkpt lat="45.75133" lon="4.30761">
        <ele>514.067</ele>
        <time>2018-12-10T13:44:47Z</time>
      </trkpt>
      <trkpt lat="45.7513" lon="4.30766">
        <ele>513.966</ele>
        <time>2018-12-10T13:44:53Z</time>
      </trkpt>
      <trkpt lat="45.75126" lon="4.30771">
        <ele>513.844</ele>
        <time>2018-12-10T13:44:58Z</time>
      </trkpt>
      <trkpt lat="45.75122" lon="4.30775">
        <ele>513.404</ele>
        <time>2018-12-10T13:45:04Z</time>
      </trkpt>
      <trkpt lat="45.75122" lon="4.30777">
        <ele>512.888</ele>
        <time>2018-12-10T13:45:10Z</time>
      </trkpt>
      <trkpt lat="45.75121" lon="4.30778">
        <ele>512.306</ele>
        <time>2018-12-10T13:45:16Z</time>
      </trkpt>
      <trkpt lat="45.7512" lon="4.30779">
        <ele>511.974</ele>
        <time>2018-12-10T13:45:22Z</time>
      </trkpt>
      <trkpt lat="45.75122" lon="4.30787">
        <ele>511.572</ele>
        <time>2018-12-10T13:45:27Z</time>
      </trkpt>
      <trkpt lat="45.75123" lon="4.30793">
        <ele>511.296</ele>
        <time>2018-12-10T13:45:33Z</time>
      </trkpt>
      <trkpt lat="45.75124" lon="4.30804">
        <ele>510.826</ele>
        <time>2018-12-10T13:45:39Z</time>
      </trkpt>
      <trkpt lat="45.75126" lon="4.30813">
        <ele>510.659</ele>
        <time>2018-12-10T13:45:45Z</time>
      </trkpt>
      <trkpt lat="45.75127" lon="4.30822">
        <ele>510.236</ele>
        <time>2018-12-10T13:45:50Z</time>
      </trkpt>
      <trkpt lat="45.75128" lon="4.30831">
        <ele>509.995</ele>
        <time>2018-12-10T13:45:56Z</time>
      </trkpt>
      <trkpt lat="45.7513" lon="4.30841">
        <ele>509.555</ele>
        <time>2018-12-10T13:46:02Z</time>
      </trkpt>
      <trkpt lat="45.75132" lon="4.30848">
        <ele>509.24</ele>
        <time>2018-12-10T13:46:07Z</time>
      </trkpt>
      <trkpt lat="45.75135" lon="4.30859">
        <ele>508.706</ele>
        <time>2018-12-10T13:46:13Z</time>
      </trkpt>
      <trkpt lat="45.75136" lon="4.30869">
        <ele>508.082</ele>
        <time>2018-12-10T13:46:19Z</time>
      </trkpt>
      <trkpt lat="45.75137" lon="4.30879">
        <ele>507.349</ele>
        <time>2018-12-10T13:46:25Z</time>
      </trkpt>
      <trkpt lat="45.75139" lon="4.30888">
        <ele>507.092</ele>
        <time>2018-12-10T13:46:31Z</time>
      </trkpt>
      <trkpt lat="45.75139" lon="4.30897">
        <ele>506.843</ele>
        <time>2018-12-10T13:46:37Z</time>
      </trkpt>
      <trkpt lat="45.75141" lon="4.30909">
        <ele>506.658</ele>
        <time>2018-12-10T13:46:43Z</time>
      </trkpt>
      <trkpt lat="45.7514" lon="4.30919">
        <ele>506.462</ele>
        <time>2018-12-10T13:46:49Z</time>
      </trkpt>
      <trkpt lat="45.75142" lon="4.30927">
        <ele>506.04</ele>
        <time>2018-12-10T13:46:55Z</time>
      </trkpt>
      <trkpt lat="45.75142" lon="4.30938">
        <ele>505.121</ele>
        <time>2018-12-10T13:47:01Z</time>
      </trkpt>
      <trkpt lat="45.75142" lon="4.30948">
        <ele>504.166</ele>
        <time>2018-12-10T13:47:07Z</time>
      </trkpt>
      <trkpt lat="45.75144" lon="4.30958">
        <ele>503.487</ele>
        <time>2018-12-10T13:47:13Z</time>
      </trkpt>
      <trkpt lat="45.75142" lon="4.30967">
        <ele>502.847</ele>
        <time>2018-12-10T13:47:19Z</time>
      </trkpt>
      <trkpt lat="45.75141" lon="4.30976">
        <ele>502.745</ele>
        <time>2018-12-10T13:47:25Z</time>
      </trkpt>
      <trkpt lat="45.75141" lon="4.30985">
        <ele>502.347</ele>
        <time>2018-12-10T13:47:30Z</time>
      </trkpt>
      <trkpt lat="45.75141" lon="4.30996">
        <ele>502.026</ele>
        <time>2018-12-10T13:47:36Z</time>
      </trkpt>
      <trkpt lat="45.7514" lon="4.31004">
        <ele>501.764</ele>
        <time>2018-12-10T13:47:41Z</time>
      </trkpt>
      <trkpt lat="45.7514" lon="4.31014">
        <ele>501.519</ele>
        <time>2018-12-10T13:47:46Z</time>
      </trkpt>
      <trkpt lat="45.7514" lon="4.31023">
        <ele>501.191</ele>
        <time>2018-12-10T13:47:52Z</time>
      </trkpt>
      <trkpt lat="45.7514" lon="4.3103">
        <ele>500.782</ele>
        <time>2018-12-10T13:47:57Z</time>
      </trkpt>
      <trkpt lat="45.75142" lon="4.31042">
        <ele>500.257</ele>
        <time>2018-12-10T13:48:02Z</time>
      </trkpt>
      <trkpt lat="45.75142" lon="4.31048">
        <ele>500.008</ele>
        <time>2018-12-10T13:48:07Z</time>
      </trkpt>
      <trkpt lat="45.75143" lon="4.31057">
        <ele>500.46</ele>
        <time>2018-12-10T13:48:13Z</time>
      </trkpt>
      <trkpt lat="45.75145" lon="4.31066">
        <ele>500.642</ele>
        <time>2018-12-10T13:48:18Z</time>
      </trkpt>
      <trkpt lat="45.7515" lon="4.31072">
        <ele>500.858</ele>
        <time>2018-12-10T13:48:23Z</time>
      </trkpt>
      <trkpt lat="45.75156" lon="4.31082">
        <ele>500.929</ele>
        <time>2018-12-10T13:48:29Z</time>
      </trkpt>
      <trkpt lat="45.75161" lon="4.3109">
        <ele>500.633</ele>
        <time>2018-12-10T13:48:35Z</time>
      </trkpt>
      <trkpt lat="45.75168" lon="4.31097">
        <ele>500.58</ele>
        <time>2018-12-10T13:48:41Z</time>
      </trkpt>
      <trkpt lat="45.75171" lon="4.31103">
        <ele>500.605</ele>
        <time>2018-12-10T13:48:47Z</time>
      </trkpt>
      <trkpt lat="45.75176" lon="4.31107">
        <ele>500.553</ele>
        <time>2018-12-10T13:48:52Z</time>
      </trkpt>
      <trkpt lat="45.75183" lon="4.31116">
        <ele>500.755</ele>
        <time>2018-12-10T13:48:58Z</time>
      </trkpt>
      <trkpt lat="45.75187" lon="4.31121">
        <ele>500.779</ele>
        <time>2018-12-10T13:49:03Z</time>
      </trkpt>
      <trkpt lat="45.75191" lon="4.31128">
        <ele>500.732</ele>
        <time>2018-12-10T13:49:09Z</time>
      </trkpt>
      <trkpt lat="45.75194" lon="4.31129">
        <ele>501.033</ele>
        <time>2018-12-10T13:49:15Z</time>
      </trkpt>
      <trkpt lat="45.752" lon="4.31132">
        <ele>501.694</ele>
        <time>2018-12-10T13:49:21Z</time>
      </trkpt>
      <trkpt lat="45.75207" lon="4.31138">
        <ele>502.231</ele>
        <time>2018-12-10T13:49:27Z</time>
      </trkpt>
      <trkpt lat="45.75213" lon="4.3114">
        <ele>502.347</ele>
        <time>2018-12-10T13:49:32Z</time>
      </trkpt>
      <trkpt lat="45.75219" lon="4.31145">
        <ele>502.736</ele>
        <time>2018-12-10T13:49:37Z</time>
      </trkpt>
      <trkpt lat="45.75226" lon="4.31148">
        <ele>503.156</ele>
        <time>2018-12-10T13:49:43Z</time>
      </trkpt>
      <trkpt lat="45.75231" lon="4.3115">
        <ele>503.531</ele>
        <time>2018-12-10T13:49:48Z</time>
      </trkpt>
      <trkpt lat="45.75238" lon="4.31154">
        <ele>503.553</ele>
        <time>2018-12-10T13:49:53Z</time>
      </trkpt>
      <trkpt lat="45.75245" lon="4.31158">
        <ele>503.461</ele>
        <time>2018-12-10T13:49:59Z</time>
      </trkpt>
      <trkpt lat="45.75251" lon="4.31163">
        <ele>503.149</ele>
        <time>2018-12-10T13:50:05Z</time>
      </trkpt>
      <trkpt lat="45.75258" lon="4.31168">
        <ele>502.881</ele>
        <time>2018-12-10T13:50:11Z</time>
      </trkpt>
      <trkpt lat="45.75264" lon="4.31175">
        <ele>502.494</ele>
        <time>2018-12-10T13:50:17Z</time>
      </trkpt>
      <trkpt lat="45.7527" lon="4.31183">
        <ele>502.101</ele>
        <time>2018-12-10T13:50:23Z</time>
      </trkpt>
      <trkpt lat="45.75274" lon="4.31188">
        <ele>501.944</ele>
        <time>2018-12-10T13:50:29Z</time>
      </trkpt>
      <trkpt lat="45.7528" lon="4.31197">
        <ele>501.577</ele>
        <time>2018-12-10T13:50:35Z</time>
      </trkpt>
      <trkpt lat="45.75285" lon="4.31207">
        <ele>501.091</ele>
        <time>2018-12-10T13:50:41Z</time>
      </trkpt>
      <trkpt lat="45.75289" lon="4.31216">
        <ele>500.874</ele>
        <time>2018-12-10T13:50:47Z</time>
      </trkpt>
      <trkpt lat="45.75292" lon="4.31225">
        <ele>500.923</ele>
        <time>2018-12-10T13:50:53Z</time>
      </trkpt>
      <trkpt lat="45.75296" lon="4.31234">
        <ele>500.747</ele>
        <time>2018-12-10T13:50:59Z</time>
      </trkpt>
      <trkpt lat="45.75298" lon="4.31244">
        <ele>500.968</ele>
        <time>2018-12-10T13:51:05Z</time>
      </trkpt>
      <trkpt lat="45.75301" lon="4.31252">
        <ele>500.889</ele>
        <time>2018-12-10T13:51:11Z</time>
      </trkpt>
      <trkpt lat="45.75303" lon="4.31261">
        <ele>501.082</ele>
        <time>2018-12-10T13:51:17Z</time>
      </trkpt>
      <trkpt lat="45.75304" lon="4.31269">
        <ele>500.551</ele>
        <time>2018-12-10T13:51:23Z</time>
      </trkpt>
      <trkpt lat="45.75301" lon="4.3128">
        <ele>500.068</ele>
        <time>2018-12-10T13:51:29Z</time>
      </trkpt>
      <trkpt lat="45.75299" lon="4.31284">
        <ele>499.321</ele>
        <time>2018-12-10T13:51:35Z</time>
      </trkpt>
      <trkpt lat="45.75291" lon="4.31289">
        <ele>499.467</ele>
        <time>2018-12-10T13:51:41Z</time>
      </trkpt>
      <trkpt lat="45.75286" lon="4.31293">
        <ele>499.441</ele>
        <time>2018-12-10T13:51:46Z</time>
      </trkpt>
      <trkpt lat="45.75281" lon="4.31297">
        <ele>499.101</ele>
        <time>2018-12-10T13:51:52Z</time>
      </trkpt>
      <trkpt lat="45.75278" lon="4.31299">
        <ele>498.784</ele>
        <time>2018-12-10T13:51:57Z</time>
      </trkpt>
      <trkpt lat="45.75272" lon="4.31302">
        <ele>498.328</ele>
        <time>2018-12-10T13:52:03Z</time>
      </trkpt>
      <trkpt lat="45.75266" lon="4.31305">
        <ele>498.091</ele>
        <time>2018-12-10T13:52:08Z</time>
      </trkpt>
      <trkpt lat="45.7526" lon="4.31311">
        <ele>497.963</ele>
        <time>2018-12-10T13:52:14Z</time>
      </trkpt>
      <trkpt lat="45.75255" lon="4.31315">
        <ele>497.518</ele>
        <time>2018-12-10T13:52:19Z</time>
      </trkpt>
      <trkpt lat="45.75248" lon="4.31318">
        <ele>497.312</ele>
        <time>2018-12-10T13:52:25Z</time>
      </trkpt>
      <trkpt lat="45.75243" lon="4.31322">
        <ele>497.155</ele>
        <time>2018-12-10T13:52:30Z</time>
      </trkpt>
      <trkpt lat="45.75235" lon="4.31331">
        <ele>497.443</ele>
        <time>2018-12-10T13:52:36Z</time>
      </trkpt>
      <trkpt lat="45.75231" lon="4.31335">
        <ele>497.807</ele>
        <time>2018-12-10T13:52:41Z</time>
      </trkpt>
      <trkpt lat="45.75227" lon="4.31339">
        <ele>498.095</ele>
        <time>2018-12-10T13:52:46Z</time>
      </trkpt>
      <trkpt lat="45.75222" lon="4.31342">
        <ele>498.364</ele>
        <time>2018-12-10T13:52:52Z</time>
      </trkpt>
      <trkpt lat="45.75216" lon="4.31345">
        <ele>498.291</ele>
        <time>2018-12-10T13:52:58Z</time>
      </trkpt>
      <trkpt lat="45.75209" lon="4.31348">
        <ele>498.166</ele>
        <time>2018-12-10T13:53:03Z</time>
      </trkpt>
      <trkpt lat="45.75205" lon="4.31351">
        <ele>498.054</ele>
        <time>2018-12-10T13:53:08Z</time>
      </trkpt>
      <trkpt lat="45.75196" lon="4.31354">
        <ele>498.248</ele>
        <time>2018-12-10T13:53:14Z</time>
      </trkpt>
      <trkpt lat="45.75194" lon="4.31356">
        <ele>498.278</ele>
        <time>2018-12-10T13:53:19Z</time>
      </trkpt>
      <trkpt lat="45.75189" lon="4.31361">
        <ele>497.977</ele>
        <time>2018-12-10T13:53:25Z</time>
      </trkpt>
      <trkpt lat="45.75185" lon="4.31365">
        <ele>497.631</ele>
        <time>2018-12-10T13:53:30Z</time>
      </trkpt>
      <trkpt lat="45.75184" lon="4.31368">
        <ele>497.553</ele>
        <time>2018-12-10T13:53:35Z</time>
      </trkpt>
      <trkpt lat="45.75184" lon="4.3137">
        <ele>497.509</ele>
        <time>2018-12-10T13:53:41Z</time>
      </trkpt>
      <trkpt lat="45.75183" lon="4.31377">
        <ele>497.749</ele>
        <time>2018-12-10T13:53:46Z</time>
      </trkpt>
      <trkpt lat="45.75182" lon="4.31382">
        <ele>497.679</ele>
        <time>2018-12-10T13:53:51Z</time>
      </trkpt>
      <trkpt lat="45.75182" lon="4.31392">
        <ele>498.271</ele>
        <time>2018-12-10T13:53:57Z</time>
      </trkpt>
      <trkpt lat="45.75184" lon="4.31401">
        <ele>499.217</ele>
        <time>2018-12-10T13:54:03Z</time>
      </trkpt>
      <trkpt lat="45.75185" lon="4.31405">
        <ele>499.689</ele>
        <time>2018-12-10T13:54:08Z</time>
      </trkpt>
      <trkpt lat="45.75189" lon="4.31412">
        <ele>500.077</ele>
        <time>2018-12-10T13:54:14Z</time>
      </trkpt>
      <trkpt lat="45.75192" lon="4.31413">
        <ele>500.662</ele>
        <time>2018-12-10T13:54:20Z</time>
      </trkpt>
      <trkpt lat="45.75199" lon="4.31415">
        <ele>501.838</ele>
        <time>2018-12-10T13:54:26Z</time>
      </trkpt>
      <trkpt lat="45.75205" lon="4.31416">
        <ele>502.355</ele>
        <time>2018-12-10T13:54:32Z</time>
      </trkpt>
      <trkpt lat="45.75211" lon="4.31422">
        <ele>502.863</ele>
        <time>2018-12-10T13:54:38Z</time>
      </trkpt>
      <trkpt lat="45.75215" lon="4.31423">
        <ele>503.157</ele>
        <time>2018-12-10T13:54:44Z</time>
      </trkpt>
      <trkpt lat="45.75219" lon="4.31426">
        <ele>503.624</ele>
        <time>2018-12-10T13:54:50Z</time>
      </trkpt>
      <trkpt lat="45.75222" lon="4.3143">
        <ele>504.462</ele>
        <time>2018-12-10T13:54:56Z</time>
      </trkpt>
      <trkpt lat="45.75223" lon="4.3143">
        <ele>504.561</ele>
        <time>2018-12-10T13:55:01Z</time>
      </trkpt>
      <trkpt lat="45.75223" lon="4.31428">
        <ele>504.67</ele>
        <time>2018-12-10T13:55:06Z</time>
      </trkpt>
      <trkpt lat="45.75225" lon="4.31427">
        <ele>504.828</ele>
        <time>2018-12-10T13:55:12Z</time>
      </trkpt>
      <trkpt lat="45.75227" lon="4.31427">
        <ele>505.047</ele>
        <time>2018-12-10T13:55:18Z</time>
      </trkpt>
      <trkpt lat="45.7523" lon="4.3143">
        <ele>505.043</ele>
        <time>2018-12-10T13:55:23Z</time>
      </trkpt>
      <trkpt lat="45.75233" lon="4.31435">
        <ele>505.201</ele>
        <time>2018-12-10T13:55:29Z</time>
      </trkpt>
      <trkpt lat="45.75238" lon="4.31441">
        <ele>505.111</ele>
        <time>2018-12-10T13:55:34Z</time>
      </trkpt>
      <trkpt lat="45.75242" lon="4.31448">
        <ele>504.644</ele>
        <time>2018-12-10T13:55:40Z</time>
      </trkpt>
      <trkpt lat="45.75246" lon="4.31452">
        <ele>504.61</ele>
        <time>2018-12-10T13:55:46Z</time>
      </trkpt>
      <trkpt lat="45.75251" lon="4.31455">
        <ele>504.455</ele>
        <time>2018-12-10T13:55:51Z</time>
      </trkpt>
      <trkpt lat="45.75257" lon="4.31459">
        <ele>504.641</ele>
        <time>2018-12-10T13:55:57Z</time>
      </trkpt>
      <trkpt lat="45.75261" lon="4.31463">
        <ele>505.034</ele>
        <time>2018-12-10T13:56:02Z</time>
      </trkpt>
      <trkpt lat="45.75264" lon="4.31467">
        <ele>505.287</ele>
        <time>2018-12-10T13:56:07Z</time>
      </trkpt>
      <trkpt lat="45.75271" lon="4.31474">
        <ele>505.031</ele>
        <time>2018-12-10T13:56:13Z</time>
      </trkpt>
      <trkpt lat="45.75276" lon="4.3148">
        <ele>505.054</ele>
        <time>2018-12-10T13:56:19Z</time>
      </trkpt>
      <trkpt lat="45.75282" lon="4.31485">
        <ele>505.137</ele>
        <time>2018-12-10T13:56:25Z</time>
      </trkpt>
      <trkpt lat="45.75288" lon="4.31488">
        <ele>504.968</ele>
        <time>2018-12-10T13:56:31Z</time>
      </trkpt>
      <trkpt lat="45.75294" lon="4.31491">
        <ele>505.069</ele>
        <time>2018-12-10T13:56:36Z</time>
      </trkpt>
      <trkpt lat="45.75301" lon="4.31497">
        <ele>505.138</ele>
        <time>2018-12-10T13:56:42Z</time>
      </trkpt>
      <trkpt lat="45.75307" lon="4.31507">
        <ele>504.858</ele>
        <time>2018-12-10T13:56:48Z</time>
      </trkpt>
      <trkpt lat="45.7531" lon="4.31519">
        <ele>504.423</ele>
        <time>2018-12-10T13:56:54Z</time>
      </trkpt>
      <trkpt lat="45.75309" lon="4.31532">
        <ele>503.883</ele>
        <time>2018-12-10T13:57:00Z</time>
      </trkpt>
      <trkpt lat="45.7531" lon="4.31541">
        <ele>503.219</ele>
        <time>2018-12-10T13:57:06Z</time>
      </trkpt>
      <trkpt lat="45.75311" lon="4.31548">
        <ele>503.301</ele>
        <time>2018-12-10T13:57:11Z</time>
      </trkpt>
      <trkpt lat="45.75315" lon="4.31559">
        <ele>503.569</ele>
        <time>2018-12-10T13:57:17Z</time>
      </trkpt>
      <trkpt lat="45.75318" lon="4.3157">
        <ele>502.77</ele>
        <time>2018-12-10T13:57:23Z</time>
      </trkpt>
      <trkpt lat="45.75322" lon="4.31579">
        <ele>502.055</ele>
        <time>2018-12-10T13:57:28Z</time>
      </trkpt>
      <trkpt lat="45.75322" lon="4.31581">
        <ele>501.056</ele>
        <time>2018-12-10T13:57:33Z</time>
      </trkpt>
      <trkpt lat="45.75323" lon="4.31589">
        <ele>501.153</ele>
        <time>2018-12-10T13:57:39Z</time>
      </trkpt>
      <trkpt lat="45.75326" lon="4.316">
        <ele>500.611</ele>
        <time>2018-12-10T13:57:45Z</time>
      </trkpt>
      <trkpt lat="45.75328" lon="4.31606">
        <ele>499.949</ele>
        <time>2018-12-10T13:57:51Z</time>
      </trkpt>
      <trkpt lat="45.75331" lon="4.31613">
        <ele>499.423</ele>
        <time>2018-12-10T13:57:57Z</time>
      </trkpt>
      <trkpt lat="45.7533" lon="4.31617">
        <ele>499.516</ele>
        <time>2018-12-10T13:58:03Z</time>
      </trkpt>
      <trkpt lat="45.7533" lon="4.31622">
        <ele>499.819</ele>
        <time>2018-12-10T13:58:08Z</time>
      </trkpt>
      <trkpt lat="45.75333" lon="4.3163">
        <ele>500.328</ele>
        <time>2018-12-10T13:58:13Z</time>
      </trkpt>
      <trkpt lat="45.75335" lon="4.3164">
        <ele>500.148</ele>
        <time>2018-12-10T13:58:19Z</time>
      </trkpt>
      <trkpt lat="45.75337" lon="4.31648">
        <ele>500.055</ele>
        <time>2018-12-10T13:58:25Z</time>
      </trkpt>
      <trkpt lat="45.75343" lon="4.31657">
        <ele>499.193</ele>
        <time>2018-12-10T13:58:31Z</time>
      </trkpt>
      <trkpt lat="45.75344" lon="4.31664">
        <ele>498.503</ele>
        <time>2018-12-10T13:58:37Z</time>
      </trkpt>
      <trkpt lat="45.75345" lon="4.31672">
        <ele>498.287</ele>
        <time>2018-12-10T13:58:42Z</time>
      </trkpt>
      <trkpt lat="45.75349" lon="4.3168">
        <ele>497.885</ele>
        <time>2018-12-10T13:58:48Z</time>
      </trkpt>
      <trkpt lat="45.75352" lon="4.3169">
        <ele>497.79</ele>
        <time>2018-12-10T13:58:54Z</time>
      </trkpt>
      <trkpt lat="45.75354" lon="4.31697">
        <ele>497.608</ele>
        <time>2018-12-10T13:58:59Z</time>
      </trkpt>
      <trkpt lat="45.75355" lon="4.31698">
        <ele>497.526</ele>
        <time>2018-12-10T13:59:05Z</time>
      </trkpt>
      <trkpt lat="45.75357" lon="4.31698">
        <ele>497.404</ele>
        <time>2018-12-10T13:59:11Z</time>
      </trkpt>
      <trkpt lat="45.75358" lon="4.31697">
        <ele>498.349</ele>
        <time>2018-12-10T13:59:16Z</time>
      </trkpt>
      <trkpt lat="45.75359" lon="4.31697">
        <ele>499.125</ele>
        <time>2018-12-10T13:59:22Z</time>
      </trkpt>
      <trkpt lat="45.75357" lon="4.31697">
        <ele>499.373</ele>
        <time>2018-12-10T13:59:28Z</time>
      </trkpt>
      <trkpt lat="45.75356" lon="4.31698">
        <ele>499.318</ele>
        <time>2018-12-10T13:59:34Z</time>
      </trkpt>
      <trkpt lat="45.75356" lon="4.31698">
        <ele>499.158</ele>
        <time>2018-12-10T13:59:40Z</time>
      </trkpt>
      <trkpt lat="45.75356" lon="4.31698">
        <ele>499.068</ele>
        <time>2018-12-10T13:59:45Z</time>
      </trkpt>
      <trkpt lat="45.75356" lon="4.31698">
        <ele>499.179</ele>
        <time>2018-12-10T13:59:50Z</time>
      </trkpt>
      <trkpt lat="45.75356" lon="4.31698">
        <ele>499.37</ele>
        <time>2018-12-10T13:59:56Z</time>
      </trkpt>
      <trkpt lat="45.75356" lon="4.31698">
        <ele>499.5</ele>
        <time>2018-12-10T14:00:02Z</time>
      </trkpt>
      <trkpt lat="45.75356" lon="4.31698">
        <ele>499.614</ele>
        <time>2018-12-10T14:00:07Z</time>
      </trkpt>
      <trkpt lat="45.75356" lon="4.31698">
        <ele>499.754</ele>
        <time>2018-12-10T14:00:12Z</time>
      </trkpt>
      <trkpt lat="45.75356" lon="4.31698">
        <ele>500.063</ele>
        <time>2018-12-10T14:00:18Z</time>
      </trkpt>
      <trkpt lat="45.75356" lon="4.31698">
        <ele>500.838</ele>
        <time>2018-12-10T14:00:23Z</time>
      </trkpt>
      <trkpt lat="45.75356" lon="4.31698">
        <ele>501.15</ele>
        <time>2018-12-10T14:00:29Z</time>
      </trkpt>
      <trkpt lat="45.75356" lon="4.31698">
        <ele>502.125</ele>
        <time>2018-12-10T14:00:34Z</time>
      </trkpt>
      <trkpt lat="45.75355" lon="4.31702">
        <ele>501.972</ele>
        <time>2018-12-10T14:00:40Z</time>
      </trkpt>
      <trkpt lat="45.75353" lon="4.31707">
        <ele>501.975</ele>
        <time>2018-12-10T14:00:45Z</time>
      </trkpt>
      <trkpt lat="45.75353" lon="4.31708">
        <ele>502.654</ele>
        <time>2018-12-10T14:00:51Z</time>
      </trkpt>
      <trkpt lat="45.75347" lon="4.31718">
        <ele>502.69</ele>
        <time>2018-12-10T14:00:56Z</time>
      </trkpt>
      <trkpt lat="45.75347" lon="4.31726">
        <ele>502.819</ele>
        <time>2018-12-10T14:01:02Z</time>
      </trkpt>
      <trkpt lat="45.75347" lon="4.31732">
        <ele>502.91</ele>
        <time>2018-12-10T14:01:07Z</time>
      </trkpt>
      <trkpt lat="45.75339" lon="4.31742">
        <ele>503.477</ele>
        <time>2018-12-10T14:01:13Z</time>
      </trkpt>
      <trkpt lat="45.75339" lon="4.31745">
        <ele>504.007</ele>
        <time>2018-12-10T14:01:19Z</time>
      </trkpt>
      <trkpt lat="45.75338" lon="4.3175">
        <ele>504.591</ele>
        <time>2018-12-10T14:01:24Z</time>
      </trkpt>
      <trkpt lat="45.75334" lon="4.31758">
        <ele>505.163</ele>
        <time>2018-12-10T14:01:30Z</time>
      </trkpt>
      <trkpt lat="45.7533" lon="4.31763">
        <ele>505.391</ele>
        <time>2018-12-10T14:01:35Z</time>
      </trkpt>
      <trkpt lat="45.75329" lon="4.31763">
        <ele>505.105</ele>
        <time>2018-12-10T14:01:40Z</time>
      </trkpt>
      <trkpt lat="45.75328" lon="4.31763">
        <ele>505.148</ele>
        <time>2018-12-10T14:01:46Z</time>
      </trkpt>
      <trkpt lat="45.75325" lon="4.31763">
        <ele>505.265</ele>
        <time>2018-12-10T14:01:52Z</time>
      </trkpt>
      <trkpt lat="45.75319" lon="4.31767">
        <ele>504.824</ele>
        <time>2018-12-10T14:01:58Z</time>
      </trkpt>
      <trkpt lat="45.75314" lon="4.31772">
        <ele>504.307</ele>
        <time>2018-12-10T14:02:04Z</time>
      </trkpt>
      <trkpt lat="45.75313" lon="4.31774">
        <ele>504.178</ele>
        <time>2018-12-10T14:02:09Z</time>
      </trkpt>
      <trkpt lat="45.7531" lon="4.31777">
        <ele>504.026</ele>
        <time>2018-12-10T14:02:15Z</time>
      </trkpt>
      <trkpt lat="45.7531" lon="4.31784">
        <ele>504.142</ele>
        <time>2018-12-10T14:02:21Z</time>
      </trkpt>
      <trkpt lat="45.75309" lon="4.3179">
        <ele>504.273</ele>
        <time>2018-12-10T14:02:26Z</time>
      </trkpt>
      <trkpt lat="45.75307" lon="4.31795">
        <ele>504.516</ele>
        <time>2018-12-10T14:02:31Z</time>
      </trkpt>
      <trkpt lat="45.75305" lon="4.31803">
        <ele>504.96</ele>
        <time>2018-12-10T14:02:36Z</time>
      </trkpt>
      <trkpt lat="45.75303" lon="4.31809">
        <ele>505.229</ele>
        <time>2018-12-10T14:02:42Z</time>
      </trkpt>
      <trkpt lat="45.75303" lon="4.31813">
        <ele>505.278</ele>
        <time>2018-12-10T14:02:48Z</time>
      </trkpt>
      <trkpt lat="45.75305" lon="4.31817">
        <ele>505.118</ele>
        <time>2018-12-10T14:02:54Z</time>
      </trkpt>
      <trkpt lat="45.75304" lon="4.31827">
        <ele>505.105</ele>
        <time>2018-12-10T14:02:59Z</time>
      </trkpt>
      <trkpt lat="45.75302" lon="4.31839">
        <ele>505.308</ele>
        <time>2018-12-10T14:03:05Z</time>
      </trkpt>
      <trkpt lat="45.75301" lon="4.31848">
        <ele>505.303</ele>
        <time>2018-12-10T14:03:10Z</time>
      </trkpt>
      <trkpt lat="45.75302" lon="4.31852">
        <ele>504.994</ele>
        <time>2018-12-10T14:03:16Z</time>
      </trkpt>
      <trkpt lat="45.753" lon="4.3186">
        <ele>504.958</ele>
        <time>2018-12-10T14:03:22Z</time>
      </trkpt>
      <trkpt lat="45.75302" lon="4.31869">
        <ele>505.39</ele>
        <time>2018-12-10T14:03:27Z</time>
      </trkpt>
      <trkpt lat="45.75304" lon="4.31876">
        <ele>505.993</ele>
        <time>2018-12-10T14:03:32Z</time>
      </trkpt>
      <trkpt lat="45.75304" lon="4.31883">
        <ele>507.398</ele>
        <time>2018-12-10T14:03:38Z</time>
      </trkpt>
      <trkpt lat="45.75304" lon="4.3189">
        <ele>508.685</ele>
        <time>2018-12-10T14:03:43Z</time>
      </trkpt>
      <trkpt lat="45.75302" lon="4.319">
        <ele>509.524</ele>
        <time>2018-12-10T14:03:49Z</time>
      </trkpt>
      <trkpt lat="45.75302" lon="4.31907">
        <ele>509.424</ele>
        <time>2018-12-10T14:03:54Z</time>
      </trkpt>
      <trkpt lat="45.75303" lon="4.31912">
        <ele>509.448</ele>
        <time>2018-12-10T14:04:00Z</time>
      </trkpt>
      <trkpt lat="45.75298" lon="4.31926">
        <ele>509.1</ele>
        <time>2018-12-10T14:04:05Z</time>
      </trkpt>
      <trkpt lat="45.753" lon="4.31935">
        <ele>508.884</ele>
        <time>2018-12-10T14:04:10Z</time>
      </trkpt>
      <trkpt lat="45.75302" lon="4.31943">
        <ele>508.48</ele>
        <time>2018-12-10T14:04:15Z</time>
      </trkpt>
      <trkpt lat="45.75301" lon="4.31948">
        <ele>508.34</ele>
        <time>2018-12-10T14:04:21Z</time>
      </trkpt>
      <trkpt lat="45.75301" lon="4.31956">
        <ele>508.422</ele>
        <time>2018-12-10T14:04:27Z</time>
      </trkpt>
      <trkpt lat="45.75302" lon="4.31963">
        <ele>508.381</ele>
        <time>2018-12-10T14:04:32Z</time>
      </trkpt>
      <trkpt lat="45.75302" lon="4.31968">
        <ele>507.936</ele>
        <time>2018-12-10T14:04:38Z</time>
      </trkpt>
      <trkpt lat="45.75303" lon="4.31976">
        <ele>507.764</ele>
        <time>2018-12-10T14:04:44Z</time>
      </trkpt>
      <trkpt lat="45.75303" lon="4.31981">
        <ele>507.454</ele>
        <time>2018-12-10T14:04:49Z</time>
      </trkpt>
      <trkpt lat="45.75304" lon="4.31986">
        <ele>507.063</ele>
        <time>2018-12-10T14:04:54Z</time>
      </trkpt>
      <trkpt lat="45.75305" lon="4.31993">
        <ele>506.45</ele>
        <time>2018-12-10T14:05:00Z</time>
      </trkpt>
      <trkpt lat="45.75306" lon="4.31997">
        <ele>506.487</ele>
        <time>2018-12-10T14:05:06Z</time>
      </trkpt>
      <trkpt lat="45.75305" lon="4.32003">
        <ele>507.008</ele>
        <time>2018-12-10T14:05:12Z</time>
      </trkpt>
      <trkpt lat="45.75305" lon="4.32011">
        <ele>507.704</ele>
        <time>2018-12-10T14:05:18Z</time>
      </trkpt>
      <trkpt lat="45.75306" lon="4.32018">
        <ele>508.499</ele>
        <time>2018-12-10T14:05:24Z</time>
      </trkpt>
      <trkpt lat="45.75308" lon="4.32024">
        <ele>509.02</ele>
        <time>2018-12-10T14:05:30Z</time>
      </trkpt>
      <trkpt lat="45.75308" lon="4.3203">
        <ele>510.092</ele>
        <time>2018-12-10T14:05:36Z</time>
      </trkpt>
      <trkpt lat="45.75311" lon="4.3204">
        <ele>510.91</ele>
        <time>2018-12-10T14:05:42Z</time>
      </trkpt>
      <trkpt lat="45.7531" lon="4.32044">
        <ele>511.397</ele>
        <time>2018-12-10T14:05:48Z</time>
      </trkpt>
      <trkpt lat="45.75311" lon="4.32051">
        <ele>511.992</ele>
        <time>2018-12-10T14:05:54Z</time>
      </trkpt>
      <trkpt lat="45.75312" lon="4.32057">
        <ele>511.981</ele>
        <time>2018-12-10T14:05:59Z</time>
      </trkpt>
      <trkpt lat="45.75311" lon="4.32063">
        <ele>512.424</ele>
        <time>2018-12-10T14:06:04Z</time>
      </trkpt>
      <trkpt lat="45.75311" lon="4.3207">
        <ele>513.15</ele>
        <time>2018-12-10T14:06:10Z</time>
      </trkpt>
      <trkpt lat="45.75311" lon="4.32077">
        <ele>513.507</ele>
        <time>2018-12-10T14:06:15Z</time>
      </trkpt>
      <trkpt lat="45.75309" lon="4.32089">
        <ele>513.627</ele>
        <time>2018-12-10T14:06:21Z</time>
      </trkpt>
      <trkpt lat="45.75308" lon="4.32097">
        <ele>513.461</ele>
        <time>2018-12-10T14:06:27Z</time>
      </trkpt>
      <trkpt lat="45.75308" lon="4.32105">
        <ele>513.221</ele>
        <time>2018-12-10T14:06:32Z</time>
      </trkpt>
      <trkpt lat="45.75307" lon="4.32115">
        <ele>513.299</ele>
        <time>2018-12-10T14:06:38Z</time>
      </trkpt>
      <trkpt lat="45.75308" lon="4.32123">
        <ele>513.384</ele>
        <time>2018-12-10T14:06:43Z</time>
      </trkpt>
      <trkpt lat="45.75309" lon="4.32132">
        <ele>513.382</ele>
        <time>2018-12-10T14:06:49Z</time>
      </trkpt>
      <trkpt lat="45.75307" lon="4.32139">
        <ele>513.54</ele>
        <time>2018-12-10T14:06:54Z</time>
      </trkpt>
      <trkpt lat="45.75306" lon="4.32143">
        <ele>513.922</ele>
        <time>2018-12-10T14:07:00Z</time>
      </trkpt>
      <trkpt lat="45.75307" lon="4.32145">
        <ele>515.133</ele>
        <time>2018-12-10T14:07:05Z</time>
      </trkpt>
      <trkpt lat="45.75308" lon="4.32145">
        <ele>515.532</ele>
        <time>2018-12-10T14:07:11Z</time>
      </trkpt>
      <trkpt lat="45.75308" lon="4.32146">
        <ele>515.101</ele>
        <time>2018-12-10T14:07:16Z</time>
      </trkpt>
      <trkpt lat="45.75308" lon="4.32146">
        <ele>515.096</ele>
        <time>2018-12-10T14:07:22Z</time>
      </trkpt>
      <trkpt lat="45.75308" lon="4.32146">
        <ele>515.269</ele>
        <time>2018-12-10T14:07:28Z</time>
      </trkpt>
      <trkpt lat="45.75308" lon="4.32146">
        <ele>515.423</ele>
        <time>2018-12-10T14:07:34Z</time>
      </trkpt>
      <trkpt lat="45.75308" lon="4.32146">
        <ele>515.267</ele>
        <time>2018-12-10T14:07:40Z</time>
      </trkpt>
      <trkpt lat="45.75306" lon="4.32148">
        <ele>514.22</ele>
        <time>2018-12-10T14:07:46Z</time>
      </trkpt>
      <trkpt lat="45.75306" lon="4.32148">
        <ele>514.229</ele>
        <time>2018-12-10T14:07:52Z</time>
      </trkpt>
      <trkpt lat="45.75306" lon="4.32148">
        <ele>514.336</ele>
        <time>2018-12-10T14:07:58Z</time>
      </trkpt>
      <trkpt lat="45.75306" lon="4.32148">
        <ele>514.398</ele>
        <time>2018-12-10T14:08:03Z</time>
      </trkpt>
      <trkpt lat="45.75306" lon="4.32148">
        <ele>514.566</ele>
        <time>2018-12-10T14:08:08Z</time>
      </trkpt>
      <trkpt lat="45.75306" lon="4.32148">
        <ele>514.175</ele>
        <time>2018-12-10T14:08:14Z</time>
      </trkpt>
      <trkpt lat="45.75306" lon="4.32148">
        <ele>514.128</ele>
        <time>2018-12-10T14:08:19Z</time>
      </trkpt>
      <trkpt lat="45.75307" lon="4.32148">
        <ele>514.414</ele>
        <time>2018-12-10T14:08:24Z</time>
      </trkpt>
      <trkpt lat="45.75306" lon="4.3215">
        <ele>514.775</ele>
        <time>2018-12-10T14:08:29Z</time>
      </trkpt>
      <trkpt lat="45.75307" lon="4.32149">
        <ele>515.174</ele>
        <time>2018-12-10T14:08:35Z</time>
      </trkpt>
      <trkpt lat="45.75307" lon="4.32149">
        <ele>515.468</ele>
        <time>2018-12-10T14:08:41Z</time>
      </trkpt>
      <trkpt lat="45.75307" lon="4.32151">
        <ele>516.389</ele>
        <time>2018-12-10T14:08:47Z</time>
      </trkpt>
      <trkpt lat="45.75306" lon="4.32153">
        <ele>517.424</ele>
        <time>2018-12-10T14:08:53Z</time>
      </trkpt>
      <trkpt lat="45.75306" lon="4.32153">
        <ele>517.005</ele>
        <time>2018-12-10T14:08:59Z</time>
      </trkpt>
      <trkpt lat="45.75309" lon="4.32157">
        <ele>516.093</ele>
        <time>2018-12-10T14:09:05Z</time>
      </trkpt>
      <trkpt lat="45.75309" lon="4.32165">
        <ele>515.406</ele>
        <time>2018-12-10T14:09:11Z</time>
      </trkpt>
      <trkpt lat="45.7531" lon="4.32177">
        <ele>515.394</ele>
        <time>2018-12-10T14:09:17Z</time>
      </trkpt>
      <trkpt lat="45.7531" lon="4.32193">
        <ele>515.055</ele>
        <time>2018-12-10T14:09:23Z</time>
      </trkpt>
      <trkpt lat="45.75309" lon="4.32197">
        <ele>514.602</ele>
        <time>2018-12-10T14:09:28Z</time>
      </trkpt>
      <trkpt lat="45.7531" lon="4.32208">
        <ele>515.168</ele>
        <time>2018-12-10T14:09:34Z</time>
      </trkpt>
      <trkpt lat="45.75308" lon="4.32208">
        <ele>516.71</ele>
        <time>2018-12-10T14:09:40Z</time>
      </trkpt>
      <trkpt lat="45.75307" lon="4.32206">
        <ele>518.165</ele>
        <time>2018-12-10T14:09:46Z</time>
      </trkpt>
      <trkpt lat="45.75307" lon="4.32204">
        <ele>519.465</ele>
        <time>2018-12-10T14:09:51Z</time>
      </trkpt>
      <trkpt lat="45.75305" lon="4.32196">
        <ele>520.366</ele>
        <time>2018-12-10T14:09:57Z</time>
      </trkpt>
      <trkpt lat="45.75303" lon="4.32188">
        <ele>520.745</ele>
        <time>2018-12-10T14:10:03Z</time>
      </trkpt>
      <trkpt lat="45.753" lon="4.3218">
        <ele>521.204</ele>
        <time>2018-12-10T14:10:08Z</time>
      </trkpt>
      <trkpt lat="45.75297" lon="4.32171">
        <ele>521.873</ele>
        <time>2018-12-10T14:10:14Z</time>
      </trkpt>
      <trkpt lat="45.75298" lon="4.32169">
        <ele>522.004</ele>
        <time>2018-12-10T14:10:20Z</time>
      </trkpt>
      <trkpt lat="45.75298" lon="4.32159">
        <ele>522.056</ele>
        <time>2018-12-10T14:10:25Z</time>
      </trkpt>
      <trkpt lat="45.75297" lon="4.32154">
        <ele>521.965</ele>
        <time>2018-12-10T14:10:30Z</time>
      </trkpt>
      <trkpt lat="45.75293" lon="4.32145">
        <ele>522.435</ele>
        <time>2018-12-10T14:10:36Z</time>
      </trkpt>
      <trkpt lat="45.7529" lon="4.32139">
        <ele>523.055</ele>
        <time>2018-12-10T14:10:41Z</time>
      </trkpt>
      <trkpt lat="45.75288" lon="4.32132">
        <ele>523.726</ele>
        <time>2018-12-10T14:10:47Z</time>
      </trkpt>
      <trkpt lat="45.75288" lon="4.32129">
        <ele>523.577</ele>
        <time>2018-12-10T14:10:53Z</time>
      </trkpt>
      <trkpt lat="45.75289" lon="4.32127">
        <ele>523.663</ele>
        <time>2018-12-10T14:10:59Z</time>
      </trkpt>
      <trkpt lat="45.75286" lon="4.32126">
        <ele>523.917</ele>
        <time>2018-12-10T14:11:04Z</time>
      </trkpt>
      <trkpt lat="45.75286" lon="4.32123">
        <ele>524.447</ele>
        <time>2018-12-10T14:11:10Z</time>
      </trkpt>
      <trkpt lat="45.75286" lon="4.32121">
        <ele>524.951</ele>
        <time>2018-12-10T14:11:15Z</time>
      </trkpt>
      <trkpt lat="45.75283" lon="4.32116">
        <ele>525.177</ele>
        <time>2018-12-10T14:11:21Z</time>
      </trkpt>
      <trkpt lat="45.75281" lon="4.32109">
        <ele>525.315</ele>
        <time>2018-12-10T14:11:26Z</time>
      </trkpt>
      <trkpt lat="45.75278" lon="4.32105">
        <ele>525.718</ele>
        <time>2018-12-10T14:11:32Z</time>
      </trkpt>
      <trkpt lat="45.75277" lon="4.32103">
        <ele>525.8</ele>
        <time>2018-12-10T14:11:37Z</time>
      </trkpt>
      <trkpt lat="45.75276" lon="4.32099">
        <ele>525.64</ele>
        <time>2018-12-10T14:11:43Z</time>
      </trkpt>
      <trkpt lat="45.75276" lon="4.32092">
        <ele>525.461</ele>
        <time>2018-12-10T14:11:48Z</time>
      </trkpt>
      <trkpt lat="45.75274" lon="4.32088">
        <ele>524.953</ele>
        <time>2018-12-10T14:11:54Z</time>
      </trkpt>
      <trkpt lat="45.7527" lon="4.32084">
        <ele>524.929</ele>
        <time>2018-12-10T14:11:59Z</time>
      </trkpt>
      <trkpt lat="45.75269" lon="4.3208">
        <ele>525.377</ele>
        <time>2018-12-10T14:12:04Z</time>
      </trkpt>
      <trkpt lat="45.75266" lon="4.32074">
        <ele>526.102</ele>
        <time>2018-12-10T14:12:10Z</time>
      </trkpt>
      <trkpt lat="45.75263" lon="4.32068">
        <ele>526.823</ele>
        <time>2018-12-10T14:12:16Z</time>
      </trkpt>
      <trkpt lat="45.7526" lon="4.32065">
        <ele>527.431</ele>
        <time>2018-12-10T14:12:21Z</time>
      </trkpt>
      <trkpt lat="45.75254" lon="4.32061">
        <ele>528.362</ele>
        <time>2018-12-10T14:12:27Z</time>
      </trkpt>
      <trkpt lat="45.75252" lon="4.32056">
        <ele>528.809</ele>
        <time>2018-12-10T14:12:32Z</time>
      </trkpt>
      <trkpt lat="45.75251" lon="4.32047">
        <ele>529.041</ele>
        <time>2018-12-10T14:12:38Z</time>
      </trkpt>
      <trkpt lat="45.75248" lon="4.32044">
        <ele>529.797</ele>
        <time>2018-12-10T14:12:43Z</time>
      </trkpt>
      <trkpt lat="45.75242" lon="4.3204">
        <ele>530.833</ele>
        <time>2018-12-10T14:12:49Z</time>
      </trkpt>
      <trkpt lat="45.75238" lon="4.32037">
        <ele>531.174</ele>
        <time>2018-12-10T14:12:55Z</time>
      </trkpt>
      <trkpt lat="45.75234" lon="4.32031">
        <ele>531.398</ele>
        <time>2018-12-10T14:13:00Z</time>
      </trkpt>
      <trkpt lat="45.75232" lon="4.32029">
        <ele>531.723</ele>
        <time>2018-12-10T14:13:06Z</time>
      </trkpt>
      <trkpt lat="45.75229" lon="4.32024">
        <ele>532.039</ele>
        <time>2018-12-10T14:13:11Z</time>
      </trkpt>
      <trkpt lat="45.75226" lon="4.32018">
        <ele>532.608</ele>
        <time>2018-12-10T14:13:17Z</time>
      </trkpt>
      <trkpt lat="45.75223" lon="4.32015">
        <ele>533.186</ele>
        <time>2018-12-10T14:13:22Z</time>
      </trkpt>
      <trkpt lat="45.75216" lon="4.3201">
        <ele>533.251</ele>
        <time>2018-12-10T14:13:27Z</time>
      </trkpt>
      <trkpt lat="45.75213" lon="4.32007">
        <ele>533.849</ele>
        <time>2018-12-10T14:13:32Z</time>
      </trkpt>
      <trkpt lat="45.7521" lon="4.32004">
        <ele>534.628</ele>
        <time>2018-12-10T14:13:38Z</time>
      </trkpt>
      <trkpt lat="45.75207" lon="4.32002">
        <ele>535.786</ele>
        <time>2018-12-10T14:13:43Z</time>
      </trkpt>
      <trkpt lat="45.75201" lon="4.31999">
        <ele>536.659</ele>
        <time>2018-12-10T14:13:49Z</time>
      </trkpt>
      <trkpt lat="45.75193" lon="4.31994">
        <ele>537.665</ele>
        <time>2018-12-10T14:13:55Z</time>
      </trkpt>
      <trkpt lat="45.75188" lon="4.31993">
        <ele>538.608</ele>
        <time>2018-12-10T14:14:01Z</time>
      </trkpt>
      <trkpt lat="45.75182" lon="4.31994">
        <ele>539.183</ele>
        <time>2018-12-10T14:14:06Z</time>
      </trkpt>
      <trkpt lat="45.75175" lon="4.31995">
        <ele>540.197</ele>
        <time>2018-12-10T14:14:12Z</time>
      </trkpt>
      <trkpt lat="45.75171" lon="4.31996">
        <ele>541.08</ele>
        <time>2018-12-10T14:14:17Z</time>
      </trkpt>
      <trkpt lat="45.75166" lon="4.31996">
        <ele>542.09</ele>
        <time>2018-12-10T14:14:23Z</time>
      </trkpt>
      <trkpt lat="45.75161" lon="4.31993">
        <ele>542.236</ele>
        <time>2018-12-10T14:14:29Z</time>
      </trkpt>
      <trkpt lat="45.75156" lon="4.31991">
        <ele>542.218</ele>
        <time>2018-12-10T14:14:35Z</time>
      </trkpt>
      <trkpt lat="45.75151" lon="4.31989">
        <ele>542.73</ele>
        <time>2018-12-10T14:14:40Z</time>
      </trkpt>
      <trkpt lat="45.75146" lon="4.31986">
        <ele>543.012</ele>
        <time>2018-12-10T14:14:46Z</time>
      </trkpt>
      <trkpt lat="45.7514" lon="4.31982">
        <ele>543.819</ele>
        <time>2018-12-10T14:14:52Z</time>
      </trkpt>
      <trkpt lat="45.75137" lon="4.3198">
        <ele>544.315</ele>
        <time>2018-12-10T14:14:57Z</time>
      </trkpt>
      <trkpt lat="45.75132" lon="4.31977">
        <ele>544.456</ele>
        <time>2018-12-10T14:15:03Z</time>
      </trkpt>
      <trkpt lat="45.75127" lon="4.31974">
        <ele>544.759</ele>
        <time>2018-12-10T14:15:08Z</time>
      </trkpt>
      <trkpt lat="45.75124" lon="4.31972">
        <ele>545.326</ele>
        <time>2018-12-10T14:15:14Z</time>
      </trkpt>
      <trkpt lat="45.75121" lon="4.31971">
        <ele>545.53</ele>
        <time>2018-12-10T14:15:19Z</time>
      </trkpt>
      <trkpt lat="45.75115" lon="4.31968">
        <ele>545.98</ele>
        <time>2018-12-10T14:15:25Z</time>
      </trkpt>
      <trkpt lat="45.7511" lon="4.31962">
        <ele>546.562</ele>
        <time>2018-12-10T14:15:31Z</time>
      </trkpt>
      <trkpt lat="45.75106" lon="4.31957">
        <ele>547.033</ele>
        <time>2018-12-10T14:15:37Z</time>
      </trkpt>
      <trkpt lat="45.75103" lon="4.31952">
        <ele>548.017</ele>
        <time>2018-12-10T14:15:43Z</time>
      </trkpt>
      <trkpt lat="45.75099" lon="4.3195">
        <ele>548.467</ele>
        <time>2018-12-10T14:15:48Z</time>
      </trkpt>
      <trkpt lat="45.75095" lon="4.31947">
        <ele>549.035</ele>
        <time>2018-12-10T14:15:54Z</time>
      </trkpt>
      <trkpt lat="45.75091" lon="4.31942">
        <ele>549.104</ele>
        <time>2018-12-10T14:15:59Z</time>
      </trkpt>
      <trkpt lat="45.75087" lon="4.31939">
        <ele>549.224</ele>
        <time>2018-12-10T14:16:04Z</time>
      </trkpt>
      <trkpt lat="45.75081" lon="4.31935">
        <ele>549.657</ele>
        <time>2018-12-10T14:16:10Z</time>
      </trkpt>
      <trkpt lat="45.75075" lon="4.31936">
        <ele>549.959</ele>
        <time>2018-12-10T14:16:15Z</time>
      </trkpt>
      <trkpt lat="45.75073" lon="4.31938">
        <ele>550.463</ele>
        <time>2018-12-10T14:16:20Z</time>
      </trkpt>
      <trkpt lat="45.7507" lon="4.31945">
        <ele>550.893</ele>
        <time>2018-12-10T14:16:26Z</time>
      </trkpt>
      <trkpt lat="45.75069" lon="4.31951">
        <ele>551.308</ele>
        <time>2018-12-10T14:16:31Z</time>
      </trkpt>
      <trkpt lat="45.75067" lon="4.31954">
        <ele>551.357</ele>
        <time>2018-12-10T14:16:37Z</time>
      </trkpt>
      <trkpt lat="45.75066" lon="4.3196">
        <ele>551.338</ele>
        <time>2018-12-10T14:16:42Z</time>
      </trkpt>
      <trkpt lat="45.75061" lon="4.31967">
        <ele>551.668</ele>
        <time>2018-12-10T14:16:48Z</time>
      </trkpt>
      <trkpt lat="45.75058" lon="4.31971">
        <ele>552.239</ele>
        <time>2018-12-10T14:16:54Z</time>
      </trkpt>
      <trkpt lat="45.75055" lon="4.31976">
        <ele>552.714</ele>
        <time>2018-12-10T14:17:00Z</time>
      </trkpt>
      <trkpt lat="45.75052" lon="4.31982">
        <ele>553.083</ele>
        <time>2018-12-10T14:17:06Z</time>
      </trkpt>
      <trkpt lat="45.75048" lon="4.31988">
        <ele>553.498</ele>
        <time>2018-12-10T14:17:12Z</time>
      </trkpt>
      <trkpt lat="45.75045" lon="4.31992">
        <ele>553.566</ele>
        <time>2018-12-10T14:17:17Z</time>
      </trkpt>
      <trkpt lat="45.75041" lon="4.31995">
        <ele>553.76</ele>
        <time>2018-12-10T14:17:23Z</time>
      </trkpt>
      <trkpt lat="45.7504" lon="4.32003">
        <ele>553.765</ele>
        <time>2018-12-10T14:17:28Z</time>
      </trkpt>
      <trkpt lat="45.75039" lon="4.32009">
        <ele>553.611</ele>
        <time>2018-12-10T14:17:34Z</time>
      </trkpt>
      <trkpt lat="45.75039" lon="4.32014">
        <ele>553.965</ele>
        <time>2018-12-10T14:17:40Z</time>
      </trkpt>
      <trkpt lat="45.75037" lon="4.32018">
        <ele>554.42</ele>
        <time>2018-12-10T14:17:45Z</time>
      </trkpt>
      <trkpt lat="45.75034" lon="4.32022">
        <ele>554.99</ele>
        <time>2018-12-10T14:17:51Z</time>
      </trkpt>
      <trkpt lat="45.7503" lon="4.32028">
        <ele>555.358</ele>
        <time>2018-12-10T14:17:57Z</time>
      </trkpt>
      <trkpt lat="45.75026" lon="4.32034">
        <ele>555.836</ele>
        <time>2018-12-10T14:18:02Z</time>
      </trkpt>
      <trkpt lat="45.75022" lon="4.3204">
        <ele>556.04</ele>
        <time>2018-12-10T14:18:08Z</time>
      </trkpt>
      <trkpt lat="45.7502" lon="4.32047">
        <ele>556.589</ele>
        <time>2018-12-10T14:18:14Z</time>
      </trkpt>
      <trkpt lat="45.75019" lon="4.32052">
        <ele>556.726</ele>
        <time>2018-12-10T14:18:19Z</time>
      </trkpt>
      <trkpt lat="45.75015" lon="4.32061">
        <ele>556.923</ele>
        <time>2018-12-10T14:18:25Z</time>
      </trkpt>
      <trkpt lat="45.75013" lon="4.32066">
        <ele>557.622</ele>
        <time>2018-12-10T14:18:31Z</time>
      </trkpt>
      <trkpt lat="45.75009" lon="4.32073">
        <ele>558.073</ele>
        <time>2018-12-10T14:18:37Z</time>
      </trkpt>
      <trkpt lat="45.75007" lon="4.32078">
        <ele>558.812</ele>
        <time>2018-12-10T14:18:42Z</time>
      </trkpt>
      <trkpt lat="45.75005" lon="4.32085">
        <ele>559.854</ele>
        <time>2018-12-10T14:18:48Z</time>
      </trkpt>
      <trkpt lat="45.75004" lon="4.32092">
        <ele>560.469</ele>
        <time>2018-12-10T14:18:54Z</time>
      </trkpt>
      <trkpt lat="45.74999" lon="4.32099">
        <ele>560.921</ele>
        <time>2018-12-10T14:19:00Z</time>
      </trkpt>
      <trkpt lat="45.74997" lon="4.32104">
        <ele>561.676</ele>
        <time>2018-12-10T14:19:06Z</time>
      </trkpt>
      <trkpt lat="45.74995" lon="4.3211">
        <ele>562.626</ele>
        <time>2018-12-10T14:19:12Z</time>
      </trkpt>
      <trkpt lat="45.74993" lon="4.32116">
        <ele>563.356</ele>
        <time>2018-12-10T14:19:17Z</time>
      </trkpt>
      <trkpt lat="45.74992" lon="4.32123">
        <ele>563.878</ele>
        <time>2018-12-10T14:19:23Z</time>
      </trkpt>
      <trkpt lat="45.74991" lon="4.32128">
        <ele>564.366</ele>
        <time>2018-12-10T14:19:28Z</time>
      </trkpt>
      <trkpt lat="45.74989" lon="4.32134">
        <ele>564.866</ele>
        <time>2018-12-10T14:19:34Z</time>
      </trkpt>
      <trkpt lat="45.74987" lon="4.3214">
        <ele>565.234</ele>
        <time>2018-12-10T14:19:40Z</time>
      </trkpt>
      <trkpt lat="45.74985" lon="4.32145">
        <ele>565.565</ele>
        <time>2018-12-10T14:19:45Z</time>
      </trkpt>
      <trkpt lat="45.74981" lon="4.32147">
        <ele>566.047</ele>
        <time>2018-12-10T14:19:50Z</time>
      </trkpt>
      <trkpt lat="45.74976" lon="4.32149">
        <ele>566.818</ele>
        <time>2018-12-10T14:19:56Z</time>
      </trkpt>
      <trkpt lat="45.74974" lon="4.32148">
        <ele>567.382</ele>
        <time>2018-12-10T14:20:02Z</time>
      </trkpt>
      <trkpt lat="45.74973" lon="4.32149">
        <ele>567.839</ele>
        <time>2018-12-10T14:20:07Z</time>
      </trkpt>
      <trkpt lat="45.74974" lon="4.32148">
        <ele>568.212</ele>
        <time>2018-12-10T14:20:13Z</time>
      </trkpt>
      <trkpt lat="45.74974" lon="4.32148">
        <ele>568.463</ele>
        <time>2018-12-10T14:20:19Z</time>
      </trkpt>
      <trkpt lat="45.74975" lon="4.32149">
        <ele>568.594</ele>
        <time>2018-12-10T14:20:25Z</time>
      </trkpt>
      <trkpt lat="45.74975" lon="4.3215">
        <ele>568.032</ele>
        <time>2018-12-10T14:20:30Z</time>
      </trkpt>
      <trkpt lat="45.74975" lon="4.3215">
        <ele>567.877</ele>
        <time>2018-12-10T14:20:35Z</time>
      </trkpt>
      <trkpt lat="45.74974" lon="4.32149">
        <ele>568.081</ele>
        <time>2018-12-10T14:20:41Z</time>
      </trkpt>
      <trkpt lat="45.74972" lon="4.32149">
        <ele>568.617</ele>
        <time>2018-12-10T14:20:47Z</time>
      </trkpt>
      <trkpt lat="45.74971" lon="4.3215">
        <ele>568.738</ele>
        <time>2018-12-10T14:20:52Z</time>
      </trkpt>
      <trkpt lat="45.74968" lon="4.32148">
        <ele>569.418</ele>
        <time>2018-12-10T14:20:58Z</time>
      </trkpt>
      <trkpt lat="45.74968" lon="4.32149">
        <ele>569.588</ele>
        <time>2018-12-10T14:21:04Z</time>
      </trkpt>
      <trkpt lat="45.74969" lon="4.32149">
        <ele>569.638</ele>
        <time>2018-12-10T14:21:09Z</time>
      </trkpt>
      <trkpt lat="45.74969" lon="4.32148">
        <ele>569.613</ele>
        <time>2018-12-10T14:21:15Z</time>
      </trkpt>
      <trkpt lat="45.74968" lon="4.32146">
        <ele>569.448</ele>
        <time>2018-12-10T14:21:21Z</time>
      </trkpt>
      <trkpt lat="45.74969" lon="4.32143">
        <ele>569.498</ele>
        <time>2018-12-10T14:21:27Z</time>
      </trkpt>
      <trkpt lat="45.7497" lon="4.32142">
        <ele>569.641</ele>
        <time>2018-12-10T14:21:33Z</time>
      </trkpt>
      <trkpt lat="45.7497" lon="4.32141">
        <ele>569.71</ele>
        <time>2018-12-10T14:21:38Z</time>
      </trkpt>
      <trkpt lat="45.7497" lon="4.32141">
        <ele>570.401</ele>
        <time>2018-12-10T14:21:44Z</time>
      </trkpt>
      <trkpt lat="45.74968" lon="4.32141">
        <ele>571.059</ele>
        <time>2018-12-10T14:21:49Z</time>
      </trkpt>
      <trkpt lat="45.74965" lon="4.32144">
        <ele>571.59</ele>
        <time>2018-12-10T14:21:55Z</time>
      </trkpt>
      <trkpt lat="45.74964" lon="4.32145">
        <ele>572.03</ele>
        <time>2018-12-10T14:22:01Z</time>
      </trkpt>
      <trkpt lat="45.74964" lon="4.32145">
        <ele>572.687</ele>
        <time>2018-12-10T14:22:07Z</time>
      </trkpt>
      <trkpt lat="45.74964" lon="4.32145">
        <ele>572.845</ele>
        <time>2018-12-10T14:22:13Z</time>
      </trkpt>
      <trkpt lat="45.74966" lon="4.32145">
        <ele>572.334</ele>
        <time>2018-12-10T14:22:18Z</time>
      </trkpt>
      <trkpt lat="45.74966" lon="4.32145">
        <ele>572.131</ele>
        <time>2018-12-10T14:22:24Z</time>
      </trkpt>
      <trkpt lat="45.74966" lon="4.32145">
        <ele>572.191</ele>
        <time>2018-12-10T14:22:30Z</time>
      </trkpt>
      <trkpt lat="45.74966" lon="4.32145">
        <ele>572.145</ele>
        <time>2018-12-10T14:22:36Z</time>
      </trkpt>
      <trkpt lat="45.74966" lon="4.32145">
        <ele>571.967</ele>
        <time>2018-12-10T14:22:42Z</time>
      </trkpt>
      <trkpt lat="45.74966" lon="4.32145">
        <ele>571.786</ele>
        <time>2018-12-10T14:22:47Z</time>
      </trkpt>
      <trkpt lat="45.74966" lon="4.32145">
        <ele>571.785</ele>
        <time>2018-12-10T14:22:53Z</time>
      </trkpt>
      <trkpt lat="45.74966" lon="4.32145">
        <ele>572.24</ele>
        <time>2018-12-10T14:22:58Z</time>
      </trkpt>
      <trkpt lat="45.74963" lon="4.32143">
        <ele>572.602</ele>
        <time>2018-12-10T14:23:04Z</time>
      </trkpt>
      <trkpt lat="45.74963" lon="4.32143">
        <ele>572.566</ele>
        <time>2018-12-10T14:23:10Z</time>
      </trkpt>
      <trkpt lat="45.74959" lon="4.32142">
        <ele>572.3</ele>
        <time>2018-12-10T14:23:16Z</time>
      </trkpt>
      <trkpt lat="45.74959" lon="4.32142">
        <ele>572.549</ele>
        <time>2018-12-10T14:23:21Z</time>
      </trkpt>
      <trkpt lat="45.74959" lon="4.32142">
        <ele>572.571</ele>
        <time>2018-12-10T14:23:26Z</time>
      </trkpt>
      <trkpt lat="45.74959" lon="4.32142">
        <ele>572.464</ele>
        <time>2018-12-10T14:23:31Z</time>
      </trkpt>
      <trkpt lat="45.74959" lon="4.32142">
        <ele>572.356</ele>
        <time>2018-12-10T14:23:37Z</time>
      </trkpt>
      <trkpt lat="45.74959" lon="4.32142">
        <ele>572.332</ele>
        <time>2018-12-10T14:23:43Z</time>
      </trkpt>
      <trkpt lat="45.74959" lon="4.32142">
        <ele>572.582</ele>
        <time>2018-12-10T14:23:48Z</time>
      </trkpt>
      <trkpt lat="45.74959" lon="4.32142">
        <ele>572.512</ele>
        <time>2018-12-10T14:23:54Z</time>
      </trkpt>
      <trkpt lat="45.74959" lon="4.32142">
        <ele>572.297</ele>
        <time>2018-12-10T14:23:59Z</time>
      </trkpt>
      <trkpt lat="45.74959" lon="4.32142">
        <ele>571.619</ele>
        <time>2018-12-10T14:24:05Z</time>
      </trkpt>
      <trkpt lat="45.74959" lon="4.32142">
        <ele>571.529</ele>
        <time>2018-12-10T14:24:10Z</time>
      </trkpt>
      <trkpt lat="45.74959" lon="4.32142">
        <ele>571.628</ele>
        <time>2018-12-10T14:24:16Z</time>
      </trkpt>
      <trkpt lat="45.74957" lon="4.32143">
        <ele>571.865</ele>
        <time>2018-12-10T14:24:22Z</time>
      </trkpt>
      <trkpt lat="45.74953" lon="4.32143">
        <ele>572.322</ele>
        <time>2018-12-10T14:24:28Z</time>
      </trkpt>
      <trkpt lat="45.74953" lon="4.32143">
        <ele>572.412</ele>
        <time>2018-12-10T14:24:34Z</time>
      </trkpt>
      <trkpt lat="45.74953" lon="4.32143">
        <ele>572.389</ele>
        <time>2018-12-10T14:24:40Z</time>
      </trkpt>
      <trkpt lat="45.74953" lon="4.32143">
        <ele>572.34</ele>
        <time>2018-12-10T14:24:45Z</time>
      </trkpt>
      <trkpt lat="45.74953" lon="4.32143">
        <ele>572.275</ele>
        <time>2018-12-10T14:24:51Z</time>
      </trkpt>
      <trkpt lat="45.74953" lon="4.32143">
        <ele>572.053</ele>
        <time>2018-12-10T14:24:56Z</time>
      </trkpt>
      <trkpt lat="45.74953" lon="4.32143">
        <ele>571.968</ele>
        <time>2018-12-10T14:25:02Z</time>
      </trkpt>
      <trkpt lat="45.74953" lon="4.32143">
        <ele>571.969</ele>
        <time>2018-12-10T14:25:07Z</time>
      </trkpt>
      <trkpt lat="45.74953" lon="4.32143">
        <ele>572.04</ele>
        <time>2018-12-10T14:25:12Z</time>
      </trkpt>
      <trkpt lat="45.74953" lon="4.32143">
        <ele>571.86</ele>
        <time>2018-12-10T14:25:18Z</time>
      </trkpt>
      <trkpt lat="45.74953" lon="4.32143">
        <ele>571.642</ele>
        <time>2018-12-10T14:25:23Z</time>
      </trkpt>
      <trkpt lat="45.74953" lon="4.32143">
        <ele>571.336</ele>
        <time>2018-12-10T14:25:29Z</time>
      </trkpt>
      <trkpt lat="45.74953" lon="4.32143">
        <ele>571.3</ele>
        <time>2018-12-10T14:25:34Z</time>
      </trkpt>
      <trkpt lat="45.74953" lon="4.32143">
        <ele>571.335</ele>
        <time>2018-12-10T14:25:39Z</time>
      </trkpt>
      <trkpt lat="45.74953" lon="4.32143">
        <ele>571.434</ele>
        <time>2018-12-10T14:25:45Z</time>
      </trkpt>
      <trkpt lat="45.74953" lon="4.32143">
        <ele>571.532</ele>
        <time>2018-12-10T14:25:51Z</time>
      </trkpt>
      <trkpt lat="45.74953" lon="4.32143">
        <ele>571.76</ele>
        <time>2018-12-10T14:25:56Z</time>
      </trkpt>
      <trkpt lat="45.7495" lon="4.32145">
        <ele>572.331</ele>
        <time>2018-12-10T14:26:02Z</time>
      </trkpt>
      <trkpt lat="45.74947" lon="4.32144">
        <ele>572.571</ele>
        <time>2018-12-10T14:26:07Z</time>
      </trkpt>
      <trkpt lat="45.74943" lon="4.32142">
        <ele>572.767</ele>
        <time>2018-12-10T14:26:12Z</time>
      </trkpt>
      <trkpt lat="45.74941" lon="4.32142">
        <ele>572.507</ele>
        <time>2018-12-10T14:26:17Z</time>
      </trkpt>
      <trkpt lat="45.74937" lon="4.32142">
        <ele>572.961</ele>
        <time>2018-12-10T14:26:23Z</time>
      </trkpt>
      <trkpt lat="45.74935" lon="4.32145">
        <ele>573.47</ele>
        <time>2018-12-10T14:26:29Z</time>
      </trkpt>
      <trkpt lat="45.7493" lon="4.32153">
        <ele>573.814</ele>
        <time>2018-12-10T14:26:35Z</time>
      </trkpt>
      <trkpt lat="45.74928" lon="4.32158">
        <ele>574.547</ele>
        <time>2018-12-10T14:26:41Z</time>
      </trkpt>
      <trkpt lat="45.74922" lon="4.32165">
        <ele>575.494</ele>
        <time>2018-12-10T14:26:47Z</time>
      </trkpt>
      <trkpt lat="45.74919" lon="4.3217">
        <ele>576.214</ele>
        <time>2018-12-10T14:26:52Z</time>
      </trkpt>
      <trkpt lat="45.74916" lon="4.32174">
        <ele>576.915</ele>
        <time>2018-12-10T14:26:58Z</time>
      </trkpt>
      <trkpt lat="45.74914" lon="4.32176">
        <ele>577.855</ele>
        <time>2018-12-10T14:27:03Z</time>
      </trkpt>
      <trkpt lat="45.74912" lon="4.32179">
        <ele>578.532</ele>
        <time>2018-12-10T14:27:08Z</time>
      </trkpt>
      <trkpt lat="45.74911" lon="4.32183">
        <ele>579.268</ele>
        <time>2018-12-10T14:27:14Z</time>
      </trkpt>
      <trkpt lat="45.74909" lon="4.32189">
        <ele>579.961</ele>
        <time>2018-12-10T14:27:19Z</time>
      </trkpt>
      <trkpt lat="45.74908" lon="4.32197">
        <ele>580.992</ele>
        <time>2018-12-10T14:27:25Z</time>
      </trkpt>
      <trkpt lat="45.74906" lon="4.32204">
        <ele>581.932</ele>
        <time>2018-12-10T14:27:30Z</time>
      </trkpt>
      <trkpt lat="45.74906" lon="4.32215">
        <ele>582.415</ele>
        <time>2018-12-10T14:27:36Z</time>
      </trkpt>
      <trkpt lat="45.74904" lon="4.32223">
        <ele>582.716</ele>
        <time>2018-12-10T14:27:42Z</time>
      </trkpt>
      <trkpt lat="45.74905" lon="4.32231">
        <ele>582.206</ele>
        <time>2018-12-10T14:27:48Z</time>
      </trkpt>
      <trkpt lat="45.74904" lon="4.32239">
        <ele>582.399</ele>
        <time>2018-12-10T14:27:54Z</time>
      </trkpt>
      <trkpt lat="45.74907" lon="4.32251">
        <ele>581.803</ele>
        <time>2018-12-10T14:28:00Z</time>
      </trkpt>
      <trkpt lat="45.74907" lon="4.3226">
        <ele>581.452</ele>
        <time>2018-12-10T14:28:05Z</time>
      </trkpt>
      <trkpt lat="45.74907" lon="4.32267">
        <ele>581.654</ele>
        <time>2018-12-10T14:28:10Z</time>
      </trkpt>
      <trkpt lat="45.74905" lon="4.32279">
        <ele>581.942</ele>
        <time>2018-12-10T14:28:16Z</time>
      </trkpt>
      <trkpt lat="45.74905" lon="4.32288">
        <ele>582.118</ele>
        <time>2018-12-10T14:28:22Z</time>
      </trkpt>
      <trkpt lat="45.74906" lon="4.32293">
        <ele>582.373</ele>
        <time>2018-12-10T14:28:28Z</time>
      </trkpt>
      <trkpt lat="45.74905" lon="4.32302">
        <ele>582.275</ele>
        <time>2018-12-10T14:28:33Z</time>
      </trkpt>
      <trkpt lat="45.74905" lon="4.32312">
        <ele>582.98</ele>
        <time>2018-12-10T14:28:39Z</time>
      </trkpt>
      <trkpt lat="45.74903" lon="4.32319">
        <ele>584.204</ele>
        <time>2018-12-10T14:28:45Z</time>
      </trkpt>
      <trkpt lat="45.74901" lon="4.32327">
        <ele>584.669</ele>
        <time>2018-12-10T14:28:50Z</time>
      </trkpt>
      <trkpt lat="45.74896" lon="4.32333">
        <ele>584.879</ele>
        <time>2018-12-10T14:28:55Z</time>
      </trkpt>
      <trkpt lat="45.74892" lon="4.32337">
        <ele>584.92</ele>
        <time>2018-12-10T14:29:01Z</time>
      </trkpt>
      <trkpt lat="45.74888" lon="4.32342">
        <ele>585.453</ele>
        <time>2018-12-10T14:29:06Z</time>
      </trkpt>
      <trkpt lat="45.74884" lon="4.32349">
        <ele>586.012</ele>
        <time>2018-12-10T14:29:12Z</time>
      </trkpt>
      <trkpt lat="45.74881" lon="4.32351">
        <ele>586.196</ele>
        <time>2018-12-10T14:29:17Z</time>
      </trkpt>
      <trkpt lat="45.74878" lon="4.32355">
        <ele>586.577</ele>
        <time>2018-12-10T14:29:22Z</time>
      </trkpt>
      <trkpt lat="45.74873" lon="4.32362">
        <ele>586.836</ele>
        <time>2018-12-10T14:29:28Z</time>
      </trkpt>
      <trkpt lat="45.7487" lon="4.32368">
        <ele>587.269</ele>
        <time>2018-12-10T14:29:33Z</time>
      </trkpt>
      <trkpt lat="45.74866" lon="4.32375">
        <ele>587.625</ele>
        <time>2018-12-10T14:29:39Z</time>
      </trkpt>
      <trkpt lat="45.74861" lon="4.32379">
        <ele>588.048</ele>
        <time>2018-12-10T14:29:45Z</time>
      </trkpt>
      <trkpt lat="45.74857" lon="4.32384">
        <ele>588.719</ele>
        <time>2018-12-10T14:29:51Z</time>
      </trkpt>
      <trkpt lat="45.74854" lon="4.32389">
        <ele>589.086</ele>
        <time>2018-12-10T14:29:56Z</time>
      </trkpt>
      <trkpt lat="45.74851" lon="4.32392">
        <ele>589.177</ele>
        <time>2018-12-10T14:30:01Z</time>
      </trkpt>
      <trkpt lat="45.74849" lon="4.32393">
        <ele>589.314</ele>
        <time>2018-12-10T14:30:06Z</time>
      </trkpt>
      <trkpt lat="45.74837" lon="4.32397">
        <ele>588.997</ele>
        <time>2018-12-10T14:30:12Z</time>
      </trkpt>
      <trkpt lat="45.74831" lon="4.32402">
        <ele>589.138</ele>
        <time>2018-12-10T14:30:18Z</time>
      </trkpt>
      <trkpt lat="45.74826" lon="4.32406">
        <ele>589.365</ele>
        <time>2018-12-10T14:30:23Z</time>
      </trkpt>
      <trkpt lat="45.74821" lon="4.32407">
        <ele>589.94</ele>
        <time>2018-12-10T14:30:28Z</time>
      </trkpt>
      <trkpt lat="45.74817" lon="4.32407">
        <ele>590.599</ele>
        <time>2018-12-10T14:30:33Z</time>
      </trkpt>
      <trkpt lat="45.74809" lon="4.3241">
        <ele>591.345</ele>
        <time>2018-12-10T14:30:39Z</time>
      </trkpt>
      <trkpt lat="45.74803" lon="4.3241">
        <ele>591.937</ele>
        <time>2018-12-10T14:30:44Z</time>
      </trkpt>
      <trkpt lat="45.74798" lon="4.32411">
        <ele>592.303</ele>
        <time>2018-12-10T14:30:49Z</time>
      </trkpt>
      <trkpt lat="45.74791" lon="4.32412">
        <ele>592.674</ele>
        <time>2018-12-10T14:30:55Z</time>
      </trkpt>
      <trkpt lat="45.74785" lon="4.32415">
        <ele>593.126</ele>
        <time>2018-12-10T14:31:00Z</time>
      </trkpt>
      <trkpt lat="45.7478" lon="4.32417">
        <ele>593.399</ele>
        <time>2018-12-10T14:31:05Z</time>
      </trkpt>
      <trkpt lat="45.74774" lon="4.32419">
        <ele>593.967</ele>
        <time>2018-12-10T14:31:11Z</time>
      </trkpt>
      <trkpt lat="45.74767" lon="4.32421">
        <ele>594.305</ele>
        <time>2018-12-10T14:31:16Z</time>
      </trkpt>
      <trkpt lat="45.74761" lon="4.32422">
        <ele>594.807</ele>
        <time>2018-12-10T14:31:22Z</time>
      </trkpt>
      <trkpt lat="45.74754" lon="4.32423">
        <ele>595.258</ele>
        <time>2018-12-10T14:31:28Z</time>
      </trkpt>
      <trkpt lat="45.74749" lon="4.32425">
        <ele>595.721</ele>
        <time>2018-12-10T14:31:34Z</time>
      </trkpt>
      <trkpt lat="45.74745" lon="4.32427">
        <ele>596.282</ele>
        <time>2018-12-10T14:31:39Z</time>
      </trkpt>
      <trkpt lat="45.74737" lon="4.3243">
        <ele>596.891</ele>
        <time>2018-12-10T14:31:45Z</time>
      </trkpt>
      <trkpt lat="45.74728" lon="4.32435">
        <ele>597.177</ele>
        <time>2018-12-10T14:31:51Z</time>
      </trkpt>
      <trkpt lat="45.74725" lon="4.32437">
        <ele>597.472</ele>
        <time>2018-12-10T14:31:56Z</time>
      </trkpt>
      <trkpt lat="45.74718" lon="4.32441">
        <ele>597.538</ele>
        <time>2018-12-10T14:32:02Z</time>
      </trkpt>
      <trkpt lat="45.74713" lon="4.32443">
        <ele>597.981</ele>
        <time>2018-12-10T14:32:08Z</time>
      </trkpt>
      <trkpt lat="45.74705" lon="4.32445">
        <ele>598.449</ele>
        <time>2018-12-10T14:32:14Z</time>
      </trkpt>
      <trkpt lat="45.74698" lon="4.3245">
        <ele>598.248</ele>
        <time>2018-12-10T14:32:20Z</time>
      </trkpt>
      <trkpt lat="45.74692" lon="4.32455">
        <ele>597.964</ele>
        <time>2018-12-10T14:32:25Z</time>
      </trkpt>
      <trkpt lat="45.74687" lon="4.32458">
        <ele>597.899</ele>
        <time>2018-12-10T14:32:30Z</time>
      </trkpt>
      <trkpt lat="45.74678" lon="4.32466">
        <ele>598.196</ele>
        <time>2018-12-10T14:32:36Z</time>
      </trkpt>
      <trkpt lat="45.74673" lon="4.32471">
        <ele>598.367</ele>
        <time>2018-12-10T14:32:42Z</time>
      </trkpt>
      <trkpt lat="45.74668" lon="4.32476">
        <ele>598.594</ele>
        <time>2018-12-10T14:32:47Z</time>
      </trkpt>
      <trkpt lat="45.7466" lon="4.32481">
        <ele>598.634</ele>
        <time>2018-12-10T14:32:53Z</time>
      </trkpt>
      <trkpt lat="45.74656" lon="4.32484">
        <ele>598.526</ele>
        <time>2018-12-10T14:32:58Z</time>
      </trkpt>
      <trkpt lat="45.74651" lon="4.32486">
        <ele>598.7</ele>
        <time>2018-12-10T14:33:03Z</time>
      </trkpt>
      <trkpt lat="45.74646" lon="4.32488">
        <ele>598.664</ele>
        <time>2018-12-10T14:33:09Z</time>
      </trkpt>
      <trkpt lat="45.7464" lon="4.3249">
        <ele>598.803</ele>
        <time>2018-12-10T14:33:14Z</time>
      </trkpt>
      <trkpt lat="45.74635" lon="4.32493">
        <ele>598.868</ele>
        <time>2018-12-10T14:33:19Z</time>
      </trkpt>
      <trkpt lat="45.74632" lon="4.32495">
        <ele>599.236</ele>
        <time>2018-12-10T14:33:25Z</time>
      </trkpt>
      <trkpt lat="45.74627" lon="4.32495">
        <ele>598.939</ele>
        <time>2018-12-10T14:33:30Z</time>
      </trkpt>
      <trkpt lat="45.74622" lon="4.32495">
        <ele>597.676</ele>
        <time>2018-12-10T14:33:36Z</time>
      </trkpt>
      <trkpt lat="45.7462" lon="4.32491">
        <ele>597.48</ele>
        <time>2018-12-10T14:33:41Z</time>
      </trkpt>
      <trkpt lat="45.74618" lon="4.32486">
        <ele>597.625</ele>
        <time>2018-12-10T14:33:46Z</time>
      </trkpt>
      <trkpt lat="45.74617" lon="4.32486">
        <ele>597.811</ele>
        <time>2018-12-10T14:33:52Z</time>
      </trkpt>
      <trkpt lat="45.74616" lon="4.32487">
        <ele>598.121</ele>
        <time>2018-12-10T14:33:57Z</time>
      </trkpt>
      <trkpt lat="45.74616" lon="4.32486">
        <ele>598.436</ele>
        <time>2018-12-10T14:34:03Z</time>
      </trkpt>
      <trkpt lat="45.74617" lon="4.32488">
        <ele>598.471</ele>
        <time>2018-12-10T14:34:08Z</time>
      </trkpt>
      <trkpt lat="45.74617" lon="4.32489">
        <ele>598.349</ele>
        <time>2018-12-10T14:34:14Z</time>
      </trkpt>
      <trkpt lat="45.74616" lon="4.32487">
        <ele>598.726</ele>
        <time>2018-12-10T14:34:19Z</time>
      </trkpt>
      <trkpt lat="45.74615" lon="4.32487">
        <ele>599.673</ele>
        <time>2018-12-10T14:34:25Z</time>
      </trkpt>
      <trkpt lat="45.74614" lon="4.32487">
        <ele>599.987</ele>
        <time>2018-12-10T14:34:30Z</time>
      </trkpt>
      <trkpt lat="45.74614" lon="4.32488">
        <ele>600.048</ele>
        <time>2018-12-10T14:34:36Z</time>
      </trkpt>
      <trkpt lat="45.74615" lon="4.32488">
        <ele>600.471</ele>
        <time>2018-12-10T14:34:42Z</time>
      </trkpt>
      <trkpt lat="45.74616" lon="4.32489">
        <ele>601.371</ele>
        <time>2018-12-10T14:34:47Z</time>
      </trkpt>
      <trkpt lat="45.74619" lon="4.3249">
        <ele>601.42</ele>
        <time>2018-12-10T14:34:53Z</time>
      </trkpt>
      <trkpt lat="45.74619" lon="4.32491">
        <ele>601.347</ele>
        <time>2018-12-10T14:34:58Z</time>
      </trkpt>
      <trkpt lat="45.74619" lon="4.32493">
        <ele>601.252</ele>
        <time>2018-12-10T14:35:03Z</time>
      </trkpt>
      <trkpt lat="45.74618" lon="4.32494">
        <ele>600.626</ele>
        <time>2018-12-10T14:35:09Z</time>
      </trkpt>
      <trkpt lat="45.74616" lon="4.32492">
        <ele>600.491</ele>
        <time>2018-12-10T14:35:14Z</time>
      </trkpt>
      <trkpt lat="45.74616" lon="4.32491">
        <ele>599.786</ele>
        <time>2018-12-10T14:35:19Z</time>
      </trkpt>
      <trkpt lat="45.74615" lon="4.32492">
        <ele>599.846</ele>
        <time>2018-12-10T14:35:25Z</time>
      </trkpt>
      <trkpt lat="45.74614" lon="4.32494">
        <ele>599.694</ele>
        <time>2018-12-10T14:35:31Z</time>
      </trkpt>
      <trkpt lat="45.74612" lon="4.32497">
        <ele>600.12</ele>
        <time>2018-12-10T14:35:36Z</time>
      </trkpt>
      <trkpt lat="45.74613" lon="4.32496">
        <ele>600.054</ele>
        <time>2018-12-10T14:35:42Z</time>
      </trkpt>
      <trkpt lat="45.74613" lon="4.32496">
        <ele>600.194</ele>
        <time>2018-12-10T14:35:48Z</time>
      </trkpt>
      <trkpt lat="45.74613" lon="4.32496">
        <ele>600.817</ele>
        <time>2018-12-10T14:35:54Z</time>
      </trkpt>
      <trkpt lat="45.74614" lon="4.3249">
        <ele>602.196</ele>
        <time>2018-12-10T14:36:00Z</time>
      </trkpt>
      <trkpt lat="45.74612" lon="4.32485">
        <ele>602.479</ele>
        <time>2018-12-10T14:36:06Z</time>
      </trkpt>
      <trkpt lat="45.74612" lon="4.32481">
        <ele>602.72</ele>
        <time>2018-12-10T14:36:11Z</time>
      </trkpt>
      <trkpt lat="45.74612" lon="4.32481">
        <ele>602.671</ele>
        <time>2018-12-10T14:36:17Z</time>
      </trkpt>
      <trkpt lat="45.74614" lon="4.3248">
        <ele>601.866</ele>
        <time>2018-12-10T14:36:23Z</time>
      </trkpt>
      <trkpt lat="45.74616" lon="4.32472">
        <ele>601.487</ele>
        <time>2018-12-10T14:36:28Z</time>
      </trkpt>
      <trkpt lat="45.74576" lon="4.32569">
        <ele>548.3</ele>
      </trkpt>
      <trkpt lat="45.7445" lon="4.32822">
        <ele>556.3</ele>
      </trkpt>
      <trkpt lat="45.74452" lon="4.32823">
        <ele>556</ele>
      </trkpt>
      <trkpt lat="45.74448" lon="4.32842">
        <ele>556.5</ele>
      </trkpt>
      <trkpt lat="45.74406" lon="4.32891">
        <ele>552.2</ele>
      </trkpt>
      <trkpt lat="45.74389" lon="4.32905">
        <ele>551.4</ele>
      </trkpt>
      <trkpt lat="45.74389" lon="4.32905">
        <ele>551</ele>
      </trkpt>
      <trkpt lat="45.74378" lon="4.32915">
        <ele>550.2</ele>
      </trkpt>
      <trkpt lat="45.74259" lon="4.329">
        <ele>540</ele>
      </trkpt>
      <trkpt lat="45.7419" lon="4.32898">
        <ele>533.5</ele>
      </trkpt>
      <trkpt lat="45.74184" lon="4.329">
        <ele>533.5</ele>
      </trkpt>
      <trkpt lat="45.74184" lon="4.329">
        <ele>534</ele>
      </trkpt>
      <trkpt lat="45.74125" lon="4.32919">
        <ele>530.2</ele>
      </trkpt>
      <trkpt lat="45.74079" lon="4.32987">
        <ele>522.1</ele>
      </trkpt>
      <trkpt lat="45.74034" lon="4.33064">
        <ele>518.3</ele>
      </trkpt>
      <trkpt lat="45.74014" lon="4.33115">
        <ele>517.9</ele>
      </trkpt>
      <trkpt lat="45.74005" lon="4.33151">
        <ele>517.3</ele>
      </trkpt>
      <trkpt lat="45.73996" lon="4.33168">
        <ele>515.3</ele>
      </trkpt>
      <trkpt lat="45.73974" lon="4.33179">
        <ele>516.2</ele>
      </trkpt>
      <trkpt lat="45.73972" lon="4.33181">
        <ele>516.2</ele>
      </trkpt>
      <trkpt lat="45.73972" lon="4.33181">
        <ele>516</ele>
      </trkpt>
      <trkpt lat="45.73974" lon="4.33179">
        <ele>516.2</ele>
      </trkpt>
      <trkpt lat="45.73966" lon="4.33163">
        <ele>513.1</ele>
      </trkpt>
      <trkpt lat="45.7396" lon="4.33144">
        <ele>512.7</ele>
      </trkpt>
      <trkpt lat="45.73944" lon="4.33112">
        <ele>511.7</ele>
      </trkpt>
      <trkpt lat="45.73911" lon="4.33074">
        <ele>507.8</ele>
      </trkpt>
      <trkpt lat="45.7391" lon="4.33072">
        <ele>507.6</ele>
      </trkpt>
      <trkpt lat="45.73901" lon="4.33062">
        <ele>506.8</ele>
      </trkpt>
      <trkpt lat="45.73881" lon="4.33033">
        <ele>505.7</ele>
      </trkpt>
      <trkpt lat="45.73866" lon="4.32997">
        <ele>504.3</ele>
      </trkpt>
      <trkpt lat="45.73865" lon="4.32969">
        <ele>504.3</ele>
      </trkpt>
      <trkpt lat="45.73868" lon="4.32939">
        <ele>504.3</ele>
      </trkpt>
      <trkpt lat="45.73867" lon="4.32927">
        <ele>504.3</ele>
      </trkpt>
      <trkpt lat="45.73863" lon="4.32922">
        <ele>504.3</ele>
      </trkpt>
      <trkpt lat="45.73863" lon="4.32922">
        <ele>504.3</ele>
      </trkpt>
      <trkpt lat="45.73863" lon="4.32922">
        <ele>504</ele>
      </trkpt>
      <trkpt lat="45.73859" lon="4.32919">
        <ele>504.4</ele>
      </trkpt>
      <trkpt lat="45.73846" lon="4.3292">
        <ele>504.6</ele>
      </trkpt>
      <trkpt lat="45.73836" lon="4.3291">
        <ele>504.5</ele>
      </trkpt>
      <trkpt lat="45.73832" lon="4.32895">
        <ele>502.2</ele>
      </trkpt>
      <trkpt lat="45.73832" lon="4.32877">
        <ele>501.6</ele>
      </trkpt>
      <trkpt lat="45.73836" lon="4.32857">
        <ele>503.3</ele>
      </trkpt>
      <trkpt lat="45.73836" lon="4.32857">
        <ele>503</ele>
      </trkpt>
      <trkpt lat="45.73836" lon="4.32856">
        <ele>503.4</ele>
      </trkpt>
      <trkpt lat="45.73841" lon="4.32787">
        <ele>500.5</ele>
      </trkpt>
      <trkpt lat="45.7384" lon="4.32674">
        <ele>496.2</ele>
      </trkpt>
      <trkpt lat="45.73846" lon="4.32605">
        <ele>495.1</ele>
      </trkpt>
      <trkpt lat="45.73854" lon="4.3255">
        <ele>493.7</ele>
      </trkpt>
      <trkpt lat="45.73856" lon="4.32535">
        <ele>493.5</ele>
      </trkpt>
      <trkpt lat="45.73861" lon="4.32505">
        <ele>493.4</ele>
      </trkpt>
      <trkpt lat="45.73863" lon="4.32462">
        <ele>491.4</ele>
      </trkpt>
      <trkpt lat="45.7386" lon="4.32396">
        <ele>490.4</ele>
      </trkpt>
      <trkpt lat="45.73856" lon="4.32364">
        <ele>489.9</ele>
      </trkpt>
      <trkpt lat="45.73851" lon="4.32333">
        <ele>489.2</ele>
      </trkpt>
      <trkpt lat="45.73839" lon="4.32276">
        <ele>487.4</ele>
      </trkpt>
      <trkpt lat="45.73829" lon="4.32244">
        <ele>486.8</ele>
      </trkpt>
      <trkpt lat="45.73829" lon="4.32244">
        <ele>487</ele>
      </trkpt>
      <trkpt lat="45.73823" lon="4.32224">
        <ele>484.8</ele>
      </trkpt>
      <trkpt lat="45.73814" lon="4.32209">
        <ele>483.9</ele>
      </trkpt>
      <trkpt lat="45.738" lon="4.32192">
        <ele>483.3</ele>
      </trkpt>
      <trkpt lat="45.7364" lon="4.32009">
        <ele>475.1</ele>
      </trkpt>
      <trkpt lat="45.7364" lon="4.32009">
        <ele>475</ele>
      </trkpt>
      <trkpt lat="45.7363" lon="4.31998">
        <ele>475.5</ele>
      </trkpt>
      <trkpt lat="45.73599" lon="4.31938">
        <ele>473.6</ele>
      </trkpt>
      <trkpt lat="45.7358" lon="4.31888">
        <ele>463.6</ele>
      </trkpt>
      <trkpt lat="45.73589" lon="4.3187">
        <ele>463.8</ele>
      </trkpt>
      <trkpt lat="45.73589" lon="4.3187">
        <ele>464</ele>
      </trkpt>
      <trkpt lat="45.73592" lon="4.31864">
        <ele>463.1</ele>
      </trkpt>
      <trkpt lat="45.73627" lon="4.31874">
        <ele>463.1</ele>
      </trkpt>
      <trkpt lat="45.73666" lon="4.31881">
        <ele>463</ele>
      </trkpt>
      <trkpt lat="45.73706" lon="4.31876">
        <ele>462</ele>
      </trkpt>
      <trkpt lat="45.73706" lon="4.3187">
        <ele>461.6</ele>
      </trkpt>
      <trkpt lat="45.73706" lon="4.3187">
        <ele>462</ele>
      </trkpt>
      <trkpt lat="45.73707" lon="4.31866">
        <ele>461.4</ele>
      </trkpt>
      <trkpt lat="45.73666" lon="4.31802">
        <ele>449.5</ele>
      </trkpt>
      <trkpt lat="45.73658" lon="4.31762">
        <ele>447.1</ele>
      </trkpt>
      <trkpt lat="45.73679" lon="4.31708">
        <ele>453.8</ele>
      </trkpt>
      <trkpt lat="45.73651" lon="4.31618">
        <ele>441</ele>
      </trkpt>
      <trkpt lat="45.73663" lon="4.31571">
        <ele>440.5</ele>
      </trkpt>
      <trkpt lat="45.73693" lon="4.31539">
        <ele>447.7</ele>
      </trkpt>
      <trkpt lat="45.73737" lon="4.31512">
        <ele>451.6</ele>
      </trkpt>
      <trkpt lat="45.73738" lon="4.31486">
        <ele>448.1</ele>
      </trkpt>
      <trkpt lat="45.73736" lon="4.31463">
        <ele>445.7</ele>
      </trkpt>
      <trkpt lat="45.73737" lon="4.3144">
        <ele>446.2</ele>
      </trkpt>
      <trkpt lat="45.7374" lon="4.31416">
        <ele>447.5</ele>
      </trkpt>
      <trkpt lat="45.73742" lon="4.31407">
        <ele>446.5</ele>
      </trkpt>
      <trkpt lat="45.73742" lon="4.31407">
        <ele>446</ele>
      </trkpt>
      <trkpt lat="45.73748" lon="4.31386">
        <ele>442.3</ele>
      </trkpt>
      <trkpt lat="45.73763" lon="4.31371">
        <ele>454.1</ele>
      </trkpt>
      <trkpt lat="45.73797" lon="4.31348">
        <ele>456</ele>
      </trkpt>
      <trkpt lat="45.73863" lon="4.31349">
        <ele>463.7</ele>
      </trkpt>
      <trkpt lat="45.7389" lon="4.31354">
        <ele>464.2</ele>
      </trkpt>
      <trkpt lat="45.73905" lon="4.3136">
        <ele>464.5</ele>
      </trkpt>
      <trkpt lat="45.73998" lon="4.31427">
        <ele>474.2</ele>
      </trkpt>
      <trkpt lat="45.7406" lon="4.31447">
        <ele>479</ele>
      </trkpt>
      <trkpt lat="45.7409" lon="4.31446">
        <ele>481.8</ele>
      </trkpt>
      <trkpt lat="45.7412" lon="4.31435">
        <ele>482.6</ele>
      </trkpt>
      <trkpt lat="45.7415" lon="4.31431">
        <ele>483.7</ele>
      </trkpt>
      <trkpt lat="45.74183" lon="4.3142">
        <ele>487.1</ele>
      </trkpt>
      <trkpt lat="45.74189" lon="4.31407">
        <ele>487.4</ele>
      </trkpt>
      <trkpt lat="45.74193" lon="4.31388">
        <ele>488.5</ele>
      </trkpt>
      <trkpt lat="45.74243" lon="4.31384">
        <ele>492.4</ele>
      </trkpt>
      <trkpt lat="45.74262" lon="4.3137">
        <ele>502.1</ele>
      </trkpt>
      <trkpt lat="45.74264" lon="4.31359">
        <ele>502.4</ele>
      </trkpt>
      <trkpt lat="45.74264" lon="4.31359">
        <ele>502</ele>
      </trkpt>
      <trkpt lat="45.74267" lon="4.3134">
        <ele>502.2</ele>
      </trkpt>
      <trkpt lat="45.74264" lon="4.31295">
        <ele>504.1</ele>
      </trkpt>
      <trkpt lat="45.74271" lon="4.31238">
        <ele>502.2</ele>
      </trkpt>
      <trkpt lat="45.74294" lon="4.312">
        <ele>501.8</ele>
      </trkpt>
      <trkpt lat="45.74303" lon="4.31183">
        <ele>501.5</ele>
      </trkpt>
      <trkpt lat="45.74306" lon="4.31153">
        <ele>498.7</ele>
      </trkpt>
      <trkpt lat="45.74294" lon="4.31102">
        <ele>497.5</ele>
      </trkpt>
      <trkpt lat="45.74285" lon="4.31058">
        <ele>496.4</ele>
      </trkpt>
      <trkpt lat="45.74283" lon="4.3105">
        <ele>496.4</ele>
      </trkpt>
      <trkpt lat="45.74284" lon="4.31033">
        <ele>496.5</ele>
      </trkpt>
      <trkpt lat="45.74289" lon="4.31022">
        <ele>496.7</ele>
      </trkpt>
      <trkpt lat="45.74305" lon="4.31007">
        <ele>497.6</ele>
      </trkpt>
      <trkpt lat="45.74328" lon="4.31002">
        <ele>499.3</ele>
      </trkpt>
      <trkpt lat="45.74331" lon="4.31002">
        <ele>499.6</ele>
      </trkpt>
      <trkpt lat="45.74331" lon="4.31002">
        <ele>500</ele>
      </trkpt>
      <trkpt lat="45.74333" lon="4.31002">
        <ele>499.7</ele>
      </trkpt>
      <trkpt lat="45.74432" lon="4.30985">
        <ele>507.3</ele>
      </trkpt>
      <trkpt lat="45.7447" lon="4.31006">
        <ele>510.2</ele>
      </trkpt>
      <trkpt lat="45.74495" lon="4.31017">
        <ele>511.6</ele>
      </trkpt>
      <trkpt lat="45.74499" lon="4.31011">
        <ele>512.3</ele>
      </trkpt>
      <trkpt lat="45.74499" lon="4.3101">
        <ele>512.4</ele>
      </trkpt>
      <trkpt lat="45.74499" lon="4.3101">
        <ele>512</ele>
      </trkpt>
      <trkpt lat="45.74499" lon="4.31011">
        <ele>512.3</ele>
      </trkpt>
      <trkpt lat="45.74495" lon="4.31017">
        <ele>511.6</ele>
      </trkpt>
      <trkpt lat="45.74504" lon="4.31045">
        <ele>514</ele>
      </trkpt>
      <trkpt lat="45.74507" lon="4.31053">
        <ele>513.7</ele>
      </trkpt>
      <trkpt lat="45.74507" lon="4.31053">
        <ele>514</ele>
      </trkpt>
      <trkpt lat="45.7451" lon="4.3106">
        <ele>513.4</ele>
      </trkpt>
    </trkseg>
  </trk>
</gpx>